Startline

Run For Women

Calgary, AB - 10 juin 2018

ÉpreuveRangTemps officiel DossardNomDivision Rang/sexeRang/division Puce
5K 1/1010 0:20:22 5690 HORVATH, Kyle M2029 1/143 1/28 0:20:20
5K 2/1010 0:22:24 5166 TREMBLAY, Phil M-U20 2/143 1/17 0:22:19
5K 3/1010 0:22:25 6029 SEVERS, Stacey F3039 1/859 1/206 0:22:23
5K 4/1010 0:22:49 3454 WILD, Adriana F3039 2/859 2/206 0:22:05
5K 5/1010 0:22:49 3434 DEWIS, Joelle F-U20 3/859 1/108 0:22:05
5K 6/1010 0:22:52 6033 SIT, Grace F3039 4/859 3/206 0:22:49
5K 7/1010 0:23:36 5751 MARQUARDT, Mark M4049 3/143 1/38 0:23:32
5K 8/1010 0:23:41 5937 KOLOMIJCHUK, Bohdan M4049 4/143 2/38 0:23:37
5K 9/1010 0:23:44 3428 NADEAU, Matea F-U20 5/859 2/108 0:23:40
5K 10/1010 0:23:51 3427 IVY, Elizabeth F2029 6/859 1/122 0:23:44
5K 11/1010 0:24:12 8591 FREUND, Jennifer F4049 7/859 1/233 0:24:10
5K 12/1010 0:24:14 6079 WREFORD, Kelli F5059 8/859 1/143 0:24:09
5K 13/1010 0:24:51 5332 CASWELL, Kayla F3039 9/859 4/206 0:23:13
5K 14/1010 0:24:55 6036 SMALL, Johnathan M-U20 5/143 2/17 0:21:40
5K 15/1010 0:24:57 6038 SMALL, Rylee F-U20 10/859 3/108 0:21:40
5K 16/1010 0:25:01 5118 HUCUL, Michelle F3039 11/859 5/206 0:24:57
5K 17/1010 0:25:07 8544 GARBOWSKI, Henry M6069 6/143 1/4 0:25:00
5K 18/1010 0:25:13 5445 MANSON, Shelby F2029 12/859 2/122 0:25:06
5K 19/1010 0:25:14 5788 HURTUBISE, Hannah F-U20 13/859 4/108 0:25:13
5K 20/1010 0:25:33 5799 VERBONAC, Maria F5059 14/859 2/143 0:25:31
5K 21/1010 0:25:39 5447 NETZEL, Morgan F3039 15/859 6/206 0:25:33
5K 22/1010 0:26:48 8549 LEE, Abigail F-U20 16/859 5/108 0:26:44
5K 23/1010 0:26:56 5879 CORTES, Joyce F3039 17/859 7/206 0:26:51
5K 24/1010 0:26:57 5745 RUDDELL, Tasha F9999 18/859 1/4 0:26:37
5K 25/1010 0:26:59 5459 KOCH, Lindsay F2029 19/859 3/122 0:26:31
5K 26/1010 0:26:59 6072 WEAVER, Mackenzie F2029 20/859 4/122 0:26:54
5K 27/1010 0:27:10 3447 HUDSON, Megan F-U20 21/859 6/108 0:25:37
5K 28/1010 0:27:12 8562 ROBINSON, Kathleen F4049 22/859 2/233 0:27:09
5K 29/1010 0:27:12 5954 MARISCO, Holly F3039 23/859 8/206 0:27:03
5K 30/1010 0:27:27 5873 CLARKE, Davis M-U20 7/143 3/17 0:26:58
5K 31/1010 0:27:28 5303 GILL, Rani F4049 24/859 3/233 0:27:24
5K 32/1010 0:27:40 6041 SMITH, Kaitlyn F3039 25/859 9/206 0:35:02
5K 33/1010 0:27:42 5513 STAPPLETON, Barry M5059 8/143 1/21 0:27:28
5K 34/1010 0:27:48 3445 DEMERS, Micaela F-U20 26/859 7/108 0:27:29
5K 35/1010 0:27:49 8543 DRUMMOND, Morgan F-U20 27/859 8/108 0:26:52
5K 36/1010 0:27:49 3429 POWERS, Victoria F-U20 28/859 9/108 0:27:43
5K 37/1010 0:27:49 8542 DRUMMOND, Keena F4049 29/859 4/233 0:26:52
5K 38/1010 0:27:54 3421 ASHWORTH, Bridget F-U20 30/859 10/108 0:27:49
5K 39/1010 0:27:55 3425 DOZOIS, Caitlyn F-U20 31/859 11/108 0:27:48
5K 40/1010 0:28:06 8571 GUSTAFSON, Paul F4049 32/859 5/233 0:28:02
5K 41/1010 0:28:07 5353 ELTOUM, Ziad M3039 9/143 1/30 0:28:04
5K 42/1010 0:28:08 3414 MCDOWELL, Amy F-U20 33/859 12/108 0:27:50
5K 43/1010 0:28:20 5854 BARLEY, Misty F4049 34/859 6/233 0:28:08
5K 44/1010 0:28:25 3435 DEWIS, Theresa F4049 35/859 7/233 0:27:40
5K 45/1010 0:28:36 3446 HUDSON, Karen F4049 36/859 8/233 0:27:01
5K 46/1010 0:28:36 5504 OOMEN, Senna F2029 37/859 5/122 0:28:17
5K 47/1010 0:28:37 5109 TRENTHAM, Dani-Lynn F2029 38/859 6/122 0:28:26
5K 48/1010 0:28:41 5497 HUBER, Janie F3039 39/859 10/206 0:28:35
5K 49/1010 0:28:45 13191 FRICKER, Annalise F3039 40/859 11/206 0:28:20
5K 50/1010 0:28:48 5444 LEAHY, Tegan F2029 41/859 7/122 0:28:41
5K 51/1010 0:28:49 8617 HOYEM, Olivia F2029 42/859 8/122 0:28:40
5K 52/1010 0:29:01 5103 VILLANI, Kelsey F3039 43/859 12/206 0:28:45
5K 53/1010 0:29:18 8601 SERPICO, Rose F5059 44/859 3/143 0:29:09
5K 54/1010 0:29:19 5875 CLARKE, Rob M4049 10/143 3/38 0:28:50
5K 55/1010 0:29:20 16036 WYLIE, Debbie F5059 45/859 4/143 0:28:37
5K 56/1010 0:29:20 16031 CHATTEN, Kari F4049 46/859 9/233 0:28:37
5K 57/1010 0:29:25 5446 MATTISON, Jeremy M2029 11/143 2/28 0:29:17
5K 58/1010 0:29:26 5442 CURRIE, Jenn F2029 47/859 9/122 0:29:17
5K 59/1010 0:29:28 6028 SCHAREIN, Jessica F3039 48/859 13/206 0:29:05
5K 60/1010 0:29:43 5474 PEREZ, Sarah F4049 49/859 10/233 0:28:29
5K 61/1010 0:29:46 5932 JOHNSON, Sarah F2029 50/859 10/122 0:28:38
5K 62/1010 0:29:52 5331 BLIXT, Kimberley F4049 51/859 11/233 0:29:43
5K 63/1010 0:29:53 5443 HOLTHE, Lindy F2029 52/859 11/122 0:29:47
5K 64/1010 0:30:01 5945 LEVOE, Katie F2029 53/859 12/122 0:29:49
5K 65/1010 0:30:02 3417 SAURETTE, Ashley F3039 54/859 14/206 0:28:26
5K 66/1010 0:30:07 5744 MALLET, Katherine F3039 55/859 15/206 0:29:47
5K 67/1010 0:30:09 5110 TRENTHAM, Shannon F5059 56/859 5/143 0:29:57
5K 68/1010 0:30:09 3426 FEHR, Carolyn F3039 57/859 16/206 0:29:56
5K 69/1010 0:30:10 5493 FOSTER, Destiny F3039 58/859 17/206 0:29:37
5K 70/1010 0:30:10 5270 CYR, Colette F3039 59/859 18/206 0:29:56
5K 71/1010 0:30:12 3406 HOYEM, Char F4049 60/859 12/233 0:29:28
5K 72/1010 0:30:14 8626 REG, Late     0:29:17
5K 73/1010 0:30:15 8625 REG, Late     0:29:15
5K 74/1010 0:30:18 5487 BEUTLER, Kaylyn F2029 61/859 13/122 0:29:45
5K 75/1010 0:30:22 5882 DHILLON, Sat F4049 62/859 13/233 0:30:01
5K 76/1010 0:30:24 8583 KARPENKO, Chelsea F2029 63/859 14/122 0:30:19
5K 77/1010 0:30:25 5642 LANE, Bethany M2029 12/143 3/28 0:30:19
5K 78/1010 0:30:31 6013 RICHARDS, Charlene F4049 64/859 14/233 0:29:48
5K 79/1010 0:30:40 16106 DESCHENES, Nicole F3039 65/859 19/206 0:30:17
5K 80/1010 0:30:40 8555 MURPHY, Erin F3039 66/859 20/206 0:30:02
5K 81/1010 0:30:43 5528 WALSH, Erin F3039 67/859 21/206 0:28:47
5K 82/1010 0:30:52 5678 FULLERTON, Grace F-U20 68/859 13/108 0:30:32
5K 83/1010 0:30:54 5742 LILJA-O'GORMAN, Jenn F3039 69/859 22/206 0:30:33
5K 84/1010 0:30:55 5421 MORIN, Madeline F-U20 70/859 14/108 0:30:25
5K 85/1010 0:31:00 5838 HEMMINGER, Sheila F5059 71/859 6/143 0:30:45
5K 86/1010 0:31:02 5377 HOY, David M3039 13/143 2/30 0:27:29
5K 87/1010 0:31:02 5378 KIM, Angela F2029 72/859 15/122 0:27:30
5K 88/1010 0:31:03 5165 GREEN, Tara F2029 73/859 16/122 0:30:56
5K 89/1010 0:31:07 16082 PANNETT, Amy F4049 74/859 15/233 0:31:01
5K 90/1010 0:31:07 5498 KELLY, Monica F4049 75/859 16/233 0:31:00
5K 91/1010 0:31:07 5507 STAVNESS, Lesley F3039 76/859 23/206 0:31:01
5K 92/1010 0:31:12 5893 ENGEL-KIMMEL, Dianne F5059 77/859 7/143 0:30:52
5K 93/1010 0:31:12 6039 SMALL, Todd M4049 14/143 4/38 0:30:06
5K 94/1010 0:31:13 6037 SMALL, Matthew M-U20 15/143 4/17 0:30:04
5K 95/1010 0:31:14 5681 ROBSON, Christy F4049 78/859 17/233 0:30:54
5K 96/1010 0:31:15 3411 GOMES, Adalina F-U20 79/859 15/108 0:29:41
5K 97/1010 0:31:18 5451 STEEVES, Meredith F2029 80/859 17/122 0:31:10
5K 98/1010 0:31:19 5449 PULS, Katelyn F2029 81/859 18/122 0:31:11
5K 99/1010 0:31:28 6000 BODEN, Jaimie F4049 82/859 18/233 0:30:53
5K 100/1010 0:31:29 5172 CAMERON, Emily F2029 83/859 19/122 0:31:20
5K 101/1010 0:31:29 6026 SAEGER BILLING, Alexa F-U20 84/859 16/108 0:31:20
5K 102/1010 0:31:30 6025 SAEGER, Simone F5059 85/859 8/143 0:31:21
5K 103/1010 0:31:30 5955 MARTIN, Anna F4049 86/859 19/233 0:30:49
5K 104/1010 0:31:33 5781 DAVIDSON, Avery F-U20 87/859 17/108 0:30:34
5K 105/1010 0:31:33 5782 DAVIDSON, Shannon F4049 88/859 20/233 0:30:35
5K 106/1010 0:31:37 5425 YUEN, Jill F2029 89/859 20/122 0:29:22
5K 107/1010 0:31:38 6059 THEW, Samara F2029 90/859 21/122 0:29:21
5K 108/1010 0:31:41 5913 GONZALES, Mary-Anne F5059 91/859 9/143 0:29:24
5K 109/1010 0:31:42 8593 HOLLAND, Kathy F6069 92/859 1/35 0:31:01
5K 110/1010 0:31:42 8610 MCCELLAL, Catherine F6069 93/859 2/35 0:31:01
5K 111/1010 0:31:42 5575 MAXWELL, Elizabeth F4049 94/859 21/233 0:30:33
5K 112/1010 0:31:43 5791 KUPS, Alyssa F-U20 95/859 18/108 0:30:45
5K 113/1010 0:31:44 5792 KUPS, Christine F4049 96/859 22/233 0:30:46
5K 114/1010 0:32:05 5901 FORTIN, Jeff M5059 16/143 2/21 0:31:58
5K 115/1010 0:32:08 5709 GAGNON, Paul M70+ 17/143 1/4 0:31:42
5K 116/1010 0:32:09 5415 BEAUDOIN, Christopher M-U20 18/143 5/17 0:31:37
5K 117/1010 0:32:09 8552 MCGREGOR, Julie F4049 97/859 23/233 0:31:34
5K 118/1010 0:32:11 5915 GOUGH, Madison F2029 98/859 22/122 0:31:04
5K 119/1010 0:32:23 5968 MICHALUK, Heather F-U20 99/859 19/108 0:30:12
5K 120/1010 0:32:24 5969 MICHALUK, Shelley F5059 100/859 10/143 0:30:12
5K 121/1010 0:32:24 3497 BURNSIDE, Jayson M4049 19/143 5/38 0:26:42
5K 122/1010 0:32:25 6040 SMITH, Amber F3039 101/859 24/206 0:30:59
5K 123/1010 0:32:27 5478 MACPHERSON, Scott M4049 20/143 6/38 0:31:01
5K 124/1010 0:32:34 5958 MARTIN DUNN, Leticia F4049 102/859 24/233 0:30:39
5K 125/1010 0:32:34 5907 FUNG, Lynda F4049 103/859 25/233 0:30:42
5K 126/1010 0:32:39 5741 KALYNIUK, Pichu F3039 104/859 25/206 0:32:17
5K 127/1010 0:32:40 5918 GROULX, Genevieve F3039 105/859 26/206 0:32:08
5K 128/1010 0:32:40 5844 AHENDA, Leslie F2029 106/859 23/122 0:32:29
5K 129/1010 0:32:45 6051 TAYLOR, Valerie F5059 107/859 11/143 0:32:17
5K 130/1010 0:32:45 5919 GRUNAU, Mara F4049 108/859 26/233 0:32:17
5K 131/1010 0:32:51 5574 HONEYCHURCH, Darlene F5059 109/859 12/143 0:31:41
5K 132/1010 0:32:52 5805 MCPHEE, Kyla F3039 110/859 27/206 0:29:27
5K 133/1010 0:32:52 5526 SOARE, Jodi F4049 111/859 27/233 0:30:56
5K 134/1010 0:32:52 5525 ELSNER, Deanne F4049 112/859 28/233 0:30:56
5K 135/1010 0:32:52 5812 NICHOLSON, Cheryl F5059 113/859 13/143 0:31:04
5K 136/1010 0:32:56 5503 MORRISON, Caroline F4049 114/859 29/233 0:31:53
5K 137/1010 0:32:57 5489 COOPER, Stephanie F4049 115/859 30/233 0:31:53
5K 138/1010 0:33:07 5721 MOORE, Austin M2029 21/143 4/28 0:32:50
5K 139/1010 0:33:07 5527 VEGA DUARTE, Almendra F3039 116/859 28/206 0:29:10
5K 140/1010 0:33:10 6070 VOOYS, Michael M5059 22/143 3/21 0:32:31
5K 141/1010 0:33:15 8535 BARRETTE, Alyssa F-U20 117/859 20/108 0:32:26
5K 142/1010 0:33:18 5370 WARD, Kathy F5059 118/859 14/143 0:33:00
5K 143/1010 0:33:19 8613 COLLINGE, Ryan M4049 23/143 7/38 0:31:16
5K 144/1010 0:33:21 5365 MARKS, Barb F5059 119/859 15/143 0:33:03
5K 145/1010 0:33:21 8560 RAINES, Shelley F4049 120/859 31/233 0:32:59
5K 146/1010 0:33:25 6012 RICHARDS, Camryn F-U20 121/859 21/108 0:33:16
5K 147/1010 0:33:30 5789 KOKOT, Cassandra F-U20 122/859 22/108 0:32:38
5K 148/1010 0:33:31 5894 FAHR, Heather F3039 123/859 29/206 0:30:13
5K 149/1010 0:33:34 5910 GIVENS, Dianne F4049 124/859 32/233 0:31:36
5K 150/1010 0:33:36 5983 NOVAK, Amy F2029 125/859 24/122 0:33:02
5K 151/1010 0:33:36 5984 NOVAK, Susan F6069 126/859 3/35 0:33:02
5K 152/1010 0:33:37 5298 MALTAIS, Barb F5059 127/859 16/143 0:33:01
5K 153/1010 0:33:37 5294 ADAMS, Brenda F5059 128/859 17/143 0:33:00
5K 154/1010 0:33:37 6016 RODDA, Cassie F4049 129/859 33/233 0:33:13
5K 155/1010 0:33:38 6015 RODDA, Ariel F-U20 130/859 23/108 0:33:14
5K 156/1010 0:33:39 5790 KOKOT, Stacey F4049 131/859 34/233 0:32:48
5K 157/1010 0:33:41 5622 MARQUEZ, Justin M2029 24/143 5/28 0:30:15
5K 158/1010 0:33:45 5609 SOUFI, Bahar F2029 132/859 25/122 0:30:16
5K 159/1010 0:33:46 16312 MASCIANGELO, Robin F5059 133/859 18/143 0:33:34
5K 160/1010 0:33:47 16400 WHELAN, Nancy F5059 134/859 19/143 0:33:36
5K 161/1010 0:33:53 5930 HUVENAARS, Susan F5059 135/859 20/143 0:32:15
5K 162/1010 0:33:53 5317 STOJSIC, Stefan M2029 25/143 6/28 0:32:38
5K 163/1010 0:33:56 5736 JAQUES, Karen F4049 136/859 35/233 0:31:48
5K 164/1010 0:33:57 3424 CLEMENS, Tinisha F-U20 137/859 24/108 0:33:43
5K 165/1010 0:33:57 3422 BALDWIN, Ava F-U20 138/859 25/108 0:33:44
5K 166/1010 0:33:58 5890 EAGLESON, Lauren F-U20 139/859 26/108 0:33:41
5K 167/1010 0:33:58 8621 MARTIN, Steven M4049 26/143 8/38 0:33:40
5K 168/1010 0:33:59 6080 YEE, Leslie F4049 140/859 36/233 0:32:56
5K 169/1010 0:33:59 6030 SIKORA, Maya F-U20 141/859 27/108 0:32:58
5K 170/1010 0:34:01 5383 VO, Thi M3039 27/143 3/30 0:30:20
5K 171/1010 0:34:02 5578 KEATS, Jacqueline F3039 142/859 30/206 0:33:53
5K 172/1010 0:34:03 16001 THAI, Yen F3039 143/859 31/206 0:30:23
5K 173/1010 0:34:03 5361 HORVAT, Belinda F4049 144/859 37/233 0:34:00
5K 174/1010 0:34:04 5734 DIMENT, Michelle F4049 145/859 38/233 0:31:55
5K 175/1010 0:34:05 5375 CHOW, Nick M3039 28/143 4/30 0:30:25
5K 176/1010 0:34:09 5592 DAIGLE, Renelle F2029 146/859 26/122 0:32:31
5K 177/1010 0:34:15 5452 ASIM, Nosheen F4049 147/859 39/233 0:33:51
5K 178/1010 0:34:18 5346 CRAWLEY, Gavin M4049 29/143 9/38 0:33:39
5K 179/1010 0:34:21 5404 DAVISON, Alison F3039 148/859 32/206 0:31:53
5K 180/1010 0:34:24 5952 MAMER, Melanie F3039 149/859 33/206 0:34:11
5K 181/1010 0:34:24 5953 MAMER, Melinda F3039 150/859 34/206 0:34:11
5K 182/1010 0:34:25 16282 JAMES, Shannon F3039 151/859 35/206 0:33:54
5K 183/1010 0:34:25 5105 LAVERTY, Ryan M3039 30/143 5/30 0:32:59
5K 184/1010 0:34:26 5104 LAVERTY, Jennifer F3039 152/859 36/206 0:33:02
5K 185/1010 0:34:29 5992 PALMER, Tara F3039 153/859 37/206 0:33:49
5K 186/1010 0:34:29 5800 ZACKARUK, Katie F-U20 154/859 28/108 0:32:36
5K 187/1010 0:34:30 5887 DUNCAN, Sarah F4049 155/859 40/233 0:32:03
5K 188/1010 0:34:30 8561 ROBBINS, Jody 156/859   0:33:21
5K 189/1010 0:34:30 5999 PAYNE, Kathryn F4049 157/859 41/233 0:32:05
5K 190/1010 0:34:32 5175 WOO, Claudia F4049 158/859 42/233 0:31:13
5K 191/1010 0:34:35 8624 ABEL, Patricia F5059 159/859 21/143 0:34:22
5K 192/1010 0:34:35 16210 BROWN, Faye F4049 160/859 43/233 0:33:45
5K 193/1010 0:34:37 16335 PARKINSON, Theresa F4049 161/859 44/233 0:33:47
5K 194/1010 0:34:46 5938 KREUTZER, Jordan M5059 31/143 4/21 0:34:29
5K 195/1010 0:34:48 5740 KAISER, Rhonda F3039 162/859 38/206 0:34:27
5K 196/1010 0:34:48 5940 LAFORGE, Vanden F-U20 163/859 29/108 0:33:53
5K 197/1010 0:34:51 8559 RAE, Angela F3039 164/859 39/206 0:34:43
5K 198/1010 0:34:52 5756 CHENG, Wendy F6069 165/859 4/35 0:32:09
5K 199/1010 0:34:53 5372 GRZELA, Julian M-U20 32/143 6/17 0:34:46
5K 200/1010 0:35:03 5889 EAGLESON, Annalisa F4049 166/859 45/233 0:34:47
5K 201/1010 0:35:07 5432 LOWES, Josh M2029 33/143 7/28 0:46:10
5K 202/1010 0:35:09 5866 BRAMMER, Brittany F3039 167/859 40/206 0:32:24
5K 203/1010 0:35:10 5977 MURPHY, Nicole F3039 168/859 41/206 0:33:39
5K 204/1010 0:35:10 5951 MACKAN, Kristina F4049 169/859 46/233 0:33:37
5K 205/1010 0:35:12 6074 WHITEHEAD, Vera-Marie F4049 170/859 47/233 0:34:18
5K 206/1010 0:35:14 16235 DIRRANE, Diane F3039 171/859 42/206 0:35:04
5K 207/1010 0:35:18 16404 WODNIAKOWSKI, Marcy F4049 172/859 48/233 0:35:09
5K 208/1010 0:35:22 16272 HICKS, Melissa F5059 173/859 22/143 0:35:13
5K 209/1010 0:35:22 8618 ROBINSON, Kimberley F4049 174/859 49/233 0:31:24
5K 210/1010 0:35:24 8558 PRITCHETT, Pam U9999 1/3 1/3 0:34:14
5K 211/1010 0:35:25 5296 FUNKE, Lana F4049 175/859 50/233 0:46:28
5K 212/1010 0:35:26 5300 PIERS, Susanne F5059 176/859 23/143 0:34:50
5K 213/1010 0:35:26 5299 MCMASTER, Theresia F5059 177/859 24/143 0:34:47
5K 214/1010 0:35:27 16002 COLLIER, Darci F2029 178/859 27/122 0:34:11
5K 215/1010 0:35:27 5295 DAVIDSON, Dawn F5059 179/859 25/143 0:34:48
5K 216/1010 0:35:42 5998 PAULS, Karen F4049 180/859 51/233 0:34:18
5K 217/1010 0:35:42 5420 MORIN, Erica F-U20 181/859 30/108 0:35:12
5K 218/1010 0:35:44 5422 MORIN, Monica F4049 182/859 52/233 0:35:14
5K 219/1010 0:35:49 5931 JOHNSON, Chelsea F4049 183/859 53/233 0:34:54
5K 220/1010 0:35:52 5252 ACKERMAN, Noella F-U20 184/859 31/108 0:35:02
5K 221/1010 0:35:53 3430 SHUBA, Polina F-U20 185/859 32/108 0:35:26
5K 222/1010 0:35:55 5960 MASON, Angela F4049 186/859 54/233 0:35:25
5K 223/1010 0:35:57 8582 THOMPSON, Heather F3039 187/859 43/206 0:34:41
5K 224/1010 0:36:00 5101 WEISS, Robyn F5059 188/859 26/143 0:34:53
5K 225/1010 0:36:01 5677 BALL, Valerie F3039 189/859 44/206 0:35:41
5K 226/1010 0:36:02 5683 STORRY, Mary F4049 190/859 55/233 0:35:42
5K 227/1010 0:36:07 6048 SUNDBERG, Abigail F2029 191/859 28/122 0:33:49
5K 228/1010 0:36:07 5484 JOBBAGY, Sheryl F4049 192/859 56/233 0:34:34
5K 229/1010 0:36:08 16279 HUNT, Kyley F3039 193/859 45/206 0:35:26
5K 230/1010 0:36:08 8598 HUNT, Jean F6069 194/859 5/35 0:35:27
5K 231/1010 0:36:09 8592 RILEY, Karen F5059 195/859 27/143 0:35:26
5K 232/1010 0:36:11 5976 MOTZ, Mike M4049 34/143 10/38 0:30:05
5K 233/1010 0:36:12 3419 TRUJILLO, Alejandra F-U20 196/859 33/108 0:34:22
5K 234/1010 0:36:12 5126 CHINNERY, Daimhin F2029 197/859 29/122 0:35:01
5K 235/1010 0:36:12 5481 CASAVANT, Joanna F4049 198/859 57/233 0:34:38
5K 236/1010 0:36:13 5703 MAENNCHEN, Cory F3039 199/859 46/206 0:33:49
5K 237/1010 0:36:14 5962 MAZEROLLE, Colin M3039 35/143 6/30 0:34:34
5K 238/1010 0:36:14 8614 MYSON, Dave M4049 36/143 11/38 0:30:09
5K 239/1010 0:36:14 5704 REINHARDT, Jen F3039 200/859 47/206 0:33:42
5K 240/1010 0:36:17 8602 BUDDEN, Annie F-U20 201/859 34/108 0:34:27
5K 241/1010 0:36:19 5899 FOLLENSBEE, Lisa F4049 202/859 58/233 0:36:15
5K 242/1010 0:36:19 6046 STAMMER, Ingrid F6069 203/859 6/35 0:36:09
5K 243/1010 0:36:19 5848 ALLEN, Morgan F3039 204/859 48/206 0:36:05
5K 244/1010 0:36:21 5710 LAU, Deanna F5059 205/859 28/143 0:35:43
5K 245/1010 0:36:24 5347 CRAWLEY, Kelly F4049 206/859 59/233 0:35:47
5K 246/1010 0:36:25 8556 OVERHOLT, Cara F4049 207/859 60/233 0:33:15
5K 247/1010 0:36:29 8581 MEYER, Karen F4049 208/859 61/233 0:35:13
5K 248/1010 0:36:31 8589 DOBBIE, Jennifer F3039 209/859 49/206 0:35:53
5K 249/1010 0:36:32 3401 BOURNE, Shasta F-U20 210/859 35/108 0:35:49
5K 250/1010 0:36:33 3403 FARRAH, Amanda F-U20 211/859 36/108 0:35:48
5K 251/1010 0:36:42 3439 LEAKOS, Carla F5059 212/859 29/143 0:34:34
5K 252/1010 0:36:44 3482 KEOUGH, Madisyn F-U20 213/859 37/108 0:35:57
5K 253/1010 0:36:45 5335 LEVY, Tracy F4049 214/859 62/233 0:35:05
5K 254/1010 0:36:45 5946 LIFESO, Aurora F3039 215/859 50/206 0:31:53
5K 255/1010 0:36:50 16178 PIGOTT-HASS, Penny F4049 216/859 63/233 0:36:27
5K 256/1010 0:36:50 5757 FREY, Pamela F5059 217/859 30/143 0:34:06
5K 257/1010 0:36:55 16199 BAZINET, Monique F3039 218/859 51/206 0:36:34
5K 258/1010 0:36:58 5939 KUNN, Marli F4049 219/859 64/233 0:35:53
5K 259/1010 0:37:00 5783 DE MONTE, Egle F5059 220/859 31/143 0:35:44
5K 260/1010 0:37:02 16148 PARTSCH, Camille F2029 221/859 30/122 0:36:21
5K 261/1010 0:37:03 16147 MARTINS, Sarah F3039 222/859 52/206 0:36:22
5K 262/1010 0:37:03 3480 BOBROWICH, Keira F-U20 223/859 38/108 0:36:06
5K 263/1010 0:37:03 5761 WHITEHOUSE, Tancy F3039 224/859 53/206 0:34:45
5K 264/1010 0:37:04 5269 THOMPSON, Kiyah F-U20 225/859 39/108 0:35:59
5K 265/1010 0:37:08 8521 BAHL, Sharissa F2029 226/859 31/122 0:34:36
5K 266/1010 0:37:15 16379 STRANGIS, Jackie F5059 227/859 32/143 0:36:55
5K 267/1010 0:37:17 5843 ADERIBIGBE, Kike F4049 228/859 65/233 0:37:13
5K 268/1010 0:37:19 5482 CAULDER, Yvonne F4049 229/859 66/233 0:35:43
5K 269/1010 0:37:20 3423 BATYCKY, Jennifer F4049 230/859 67/233 0:36:09
5K 270/1010 0:37:24 5780 BARBER, Rylie F-U20 231/859 40/108 0:36:54
5K 271/1010 0:37:24 5778 BARBER, Daren M5059 37/143 5/21 0:36:56
5K 272/1010 0:37:25 5759 MILLER, Rosemarie F6069 232/859 7/35 0:34:41
5K 273/1010 0:37:25 5615 JOORISITY, Karen F3039 233/859 54/206 0:47:26
5K 274/1010 0:37:29 5779 BARBER, Hayley F4049 234/859 68/233 0:36:59
5K 275/1010 0:37:30 3464 REES MURPHY, Virginia F4049 235/859 69/233 0:36:18
5K 276/1010 0:37:32 16216 BYRNE, Andrea F5059 236/859 33/143 0:37:20
5K 277/1010 0:37:33 16230 COUTURE, Yvette F5059 237/859 34/143 0:37:22
5K 278/1010 0:37:38 5570 AL MOUSELLY, Maher M3039 38/143 7/30 0:36:34
5K 279/1010 0:37:39 3412 LAW, Sarah F-U20 238/859 41/108 0:37:21
5K 280/1010 0:37:40 5119 JOA, Kristie F2029 239/859 32/122 0:34:37
5K 281/1010 0:37:45 5777 AITKEN, Emilie F2029 240/859 33/122 0:36:27
5K 282/1010 0:37:47 5868 CATHCART, Janice F5059 241/859 35/143 0:37:13
5K 283/1010 0:37:50 5980 NAYOSKI, Nicole F4049 242/859 70/233 0:37:17
5K 284/1010 0:37:50 5950 MACDONALD, Kathleen F4049 243/859 71/233 0:37:29
5K 285/1010 0:37:53 5869 CHRISTIANSON, April F-U20 244/859 42/108 0:37:01
5K 286/1010 0:37:54 5870 CHRISTIANSON, Joy F4049 245/859 72/233 0:37:02
5K 287/1010 0:37:54 6010 REDEKER, Julie F5059 246/859 36/143 0:37:35
5K 288/1010 0:37:58 16179 TANNER, Howard M5059 39/143 6/21 0:35:38
5K 289/1010 0:37:58 5966 MEIL, Jennifer F4049 247/859 73/233 0:37:37
5K 290/1010 0:37:59 6052 TEASDALE, Tracy F4049 248/859 74/233 0:37:34
5K 291/1010 0:38:00 5350 BARR, Kathleen F2029 249/859 34/122 0:36:50
5K 292/1010 0:38:00 8607 VANYI, Naomi F4049 250/859 75/233 0:36:54
5K 293/1010 0:38:00 5963 MCCONNELL, Liana F5059 251/859 37/143 0:37:36
5K 294/1010 0:38:01 5916 GREEN, Susan F4049 252/859 76/233 0:37:14
5K 295/1010 0:38:02 5645 MCNUTT, Joanne F5059 253/859 38/143 0:37:03
5K 296/1010 0:38:03 5643 LANE, Diana F5059 254/859 39/143 0:37:03
5K 297/1010 0:38:03 5700 ROWE, Mary-Anne F4049 255/859 77/233 0:37:30
5K 298/1010 0:38:04 5696 HARRIS, Cath F5059 256/859 40/143 0:37:32
5K 299/1010 0:38:04 6049 SYKES, Kailie F3039 257/859 55/206 0:37:07
5K 300/1010 0:38:05 3402 CAPILI, Sofiah F-U20 258/859 43/108 0:36:43
5K 301/1010 0:38:08 5505 PROCYSHEN, Amanda F2029 259/859 35/122 0:37:48
5K 302/1010 0:38:17 5841 ACHESON, Gwen F-U20 260/859 44/108 0:38:09
5K 303/1010 0:38:17 3432 CLARK, Natalie F-U20 261/859 45/108 0:36:50
5K 304/1010 0:38:20 5842 ACHESON, Lynn F4049 262/859 78/233 0:38:13
5K 305/1010 0:38:28 5846 ALJUBORI, Ahmed M4049 40/143 12/38 0:37:18
5K 306/1010 0:38:30 5738 WEIMER, Carissa F4049 263/859 79/233 0:36:17
5K 307/1010 0:38:32 3463 CLIFT, Alison F5059 264/859 41/143 0:37:25
5K 308/1010 0:38:32 5748 CRABTREE, Daniel M4049 41/143 13/38 0:35:20
5K 309/1010 0:38:32 5747 BARKER, Jennifer F4049 265/859 80/233 0:35:20
5K 310/1010 0:38:33 5212 BUSCHERT, Lana F3039 266/859 56/206 0:36:36
5K 311/1010 0:38:34 5847 ALJUBORI, Nadine F4049 267/859 81/233 0:37:25
5K 312/1010 0:38:34 3478 NORTOFT-DAIGLE, Lisa F4049 268/859 82/233 0:36:37
5K 313/1010 0:38:35 5927 HOPKINS, Norma F5059 269/859 42/143 0:33:42
5K 314/1010 0:38:38 5905 FUNG, Danielle F2029 270/859 36/122 0:35:38
5K 315/1010 0:38:39 5173 WONG, Katherine F3039 271/859 57/206 0:35:37
5K 316/1010 0:38:40 3441 PIA, Jessica F3039 272/859 58/206 0:37:13
5K 317/1010 0:38:40 16004 MARCHAND, Vicki F5059 273/859 43/143 0:35:56
5K 318/1010 0:38:41 3448 MANDZIAK, Brad M4049 42/143 14/38 0:36:43
5K 319/1010 0:38:41 3449 MANDZIAK, Sophia F-U20 274/859 46/108 0:36:43
5K 320/1010 0:38:43 16360 SANDERS, Kerri F4049 275/859 83/233 0:48:47
5K 321/1010 0:38:44 5376 DIANA, Choi F2029 276/859 37/122 0:35:12
5K 322/1010 0:38:44 5384 WU, Katie F2029 277/859 38/122 0:35:05
5K 323/1010 0:38:46 3443 VARNER, Lisa F5059 278/859 44/143 0:36:38
5K 324/1010 0:38:46 3442 SECRETO, Teresa F4049 279/859 84/233 0:36:38
5K 325/1010 0:38:48 5874 CLARKE, Kennedy F-U20 280/859 47/108 0:38:15
5K 326/1010 0:38:48 8554 MOCH, Susan F6069 281/859 8/35 0:49:52
5K 327/1010 0:38:49 16353 ROBINSON, Bridget F3039 282/859 59/206 0:35:06
5K 328/1010 0:38:52 5368 SMITH, Shannon F3039 283/859 60/206 0:37:03
5K 329/1010 0:38:53 6027 SAINI, Andrea F3039 284/859 61/206 0:38:27
5K 330/1010 0:38:53 3479 STEEVES, Jennifer F4049 285/859 85/233 0:49:56
5K 331/1010 0:38:53 5364 LANE, Alison F5059 286/859 45/143 0:37:06
5K 332/1010 0:38:56 5802 ZHANG, Isabel F-U20 287/859 48/108 0:37:01
5K 333/1010 0:38:57 5796 NASSE, Marilyn F4049 288/859 86/233 0:38:09
5K 334/1010 0:38:58 6073 WELESCHUK, Catherine F3039 289/859 62/206 0:34:06
5K 335/1010 0:39:00 6020 ROSS, Krystle F3039 290/859 63/206 0:37:16
5K 336/1010 0:39:01 5886 DUDEK, Donna F5059 291/859 46/143 0:37:35
5K 337/1010 0:39:03 8574 COUCILL, Trudy F9999 292/859 2/4 0:35:56
5K 338/1010 0:39:06 5914 GORDON, Mairi F4049 293/859 87/233 0:38:53
5K 339/1010 0:39:12 8587 NERI GARCIA, Sofi F-U20 294/859 49/108 0:38:08
5K 340/1010 0:39:24 5137 PATEL, Jay M3039 43/143 8/30 0:37:57
5K 341/1010 0:39:25 5138 STEWART, Kaylie F2029 295/859 39/122 0:39:12
5K 342/1010 0:39:25 5857 BEATTIE, Kerrina F5059 296/859 47/143 0:38:36
5K 343/1010 0:39:26 5682 SHAW, Kathryn F4049 297/859 88/233 0:39:07
5K 344/1010 0:39:45 5698 MCVEAN, Holli F5059 298/859 48/143 0:39:08
5K 345/1010 0:39:45 5697 MCCAMBLEY, Laura F5059 299/859 49/143 0:39:10
5K 346/1010 0:39:46 5171 BRIGHT, Katherine F4049 300/859 89/233 0:39:23
5K 347/1010 0:39:47 5948 LUSCOMBE, Ava Rose F-U20 301/859 50/108 0:35:53
5K 348/1010 0:39:48 3408 JACKSON, Olivia F-U20 302/859 51/108 0:38:26
5K 349/1010 0:39:49 5949 LUSCOMBE, Dawn F4049 303/859 90/233 0:35:51
5K 350/1010 0:39:53 6047 STURGEON, Isabelle F4049 304/859 91/233 0:50:56
5K 351/1010 0:39:54 5621 LAI, Christina Ying To F2029 305/859 40/122 0:36:34
5K 352/1010 0:39:55 5626 WONG, Jason M3039 44/143 9/30 0:36:35
5K 353/1010 0:39:59 5833 FANTINATO, Courtney F2029 306/859 41/122 0:36:54
5K 354/1010 0:40:01 5348 SCHOFIELD, Jo-Anne F5059 307/859 50/143 0:39:23
5K 355/1010 0:40:01 5349 WHEATCROFT, Dayna F-U20 308/859 52/108 0:39:23
5K 356/1010 0:40:06 3413 MARCHAND, Brent F5059 309/859 51/143 0:37:17
5K 357/1010 0:40:09 8627 REG, Late     0:39:20
5K 358/1010 0:40:13 5785 GILES, Calvin M4049 45/143 15/38 0:39:13
5K 359/1010 0:40:14 5786 GILES, Emma F-U20 310/859 53/108 0:39:13
5K 360/1010 0:40:15 6053 TENHOVE, Jessie F-U20 311/859 54/108 0:38:59
5K 361/1010 0:40:15 6055 TENHOVE, Reese F-U20 312/859 55/108 0:39:02
5K 362/1010 0:40:25 5891 EDGAR, Wanda F5059 313/859 52/143 0:39:43
5K 363/1010 0:40:26 3440 MACNEIL, Jo-Ann F3039 314/859 64/206 0:38:16
5K 364/1010 0:40:31 5883 DILLON, Kirstyn F3039 315/859 65/206 0:37:30
5K 365/1010 0:40:34 6001 PENDERGRASS, Terri F6069 316/859 9/35 0:37:32
5K 366/1010 0:40:34 6034 SLATER, Alison F4049 317/859 92/233 0:37:31
5K 367/1010 0:40:36 5417 CHOW, Alice F6069 318/859 10/35 0:38:17
5K 368/1010 0:40:37 8501 ANDREWS, Nancy F5059 319/859 53/143 0:38:19
5K 369/1010 0:40:39 5897 FIELD, Kristy F2029 320/859 42/122 0:37:52
5K 370/1010 0:40:40 5412 PATEL, Jihal M2029 46/143 8/28 0:39:26
5K 371/1010 0:40:40 5629 BARNES, Jeremy M4049 47/143 16/38 0:38:03
5K 372/1010 0:40:41 5630 BARNES, Jerri F4049 321/859 93/233 0:38:10
5K 373/1010 0:40:41 5924 HEAMAN, Danae F2029 322/859 43/122 0:38:37
5K 374/1010 0:40:41 3420 WARD, Alyssa F-U20 323/859 56/108 0:38:39
5K 375/1010 0:40:41 5964 MCCOY, Lana F3039 324/859 66/206 0:38:37
5K 376/1010 0:40:43 5623 REYES, Jener M2029 48/143 9/28 0:37:19
5K 377/1010 0:40:44 3450 SAVOIA, Mackenzie F-U20 325/859 57/108 0:38:42
5K 378/1010 0:40:52 5455 MAZHAR, Leena F-U20 326/859 58/108 0:40:29
5K 379/1010 0:41:03 6076 WONG, Cathy F6069 327/859 11/35 0:40:58
5K 380/1010 0:41:04 5488 BOURNE, Jennifer F3039 328/859 67/206 0:39:45
5K 381/1010 0:41:04 5506 SMITH, Kael M4049 49/143 17/38 0:39:48
5K 382/1010 0:41:08 5127 CHINNERY, Siobhan F5059 329/859 54/143 0:39:56
5K 383/1010 0:41:11 5258 HALLIDAY-CLARK, Ann F4049 330/859 94/233 0:40:26
5K 384/1010 0:41:11 8500 PATEL, Kshiti F-U20 331/859 59/108 0:39:53
5K 385/1010 0:41:12 5979 MURRAY, Kaitlyn F-U20 332/859 60/108 0:39:23
5K 386/1010 0:41:13 5129 NESBITT, Judy F4049 333/859 95/233 0:39:36
5K 387/1010 0:41:15 5456 METZLER, Christiane F4049 334/859 96/233 0:40:51
5K 388/1010 0:41:16 5920 HAGAN, Rebekah F2029 335/859 44/122 0:41:05
5K 389/1010 0:41:18 5406 BHATT, Vrushali 336/859   0:40:02
5K 390/1010 0:41:35 5898 FILIPUZZI, Carissa F2029 337/859 45/122 0:39:37
5K 391/1010 0:41:36 3460 MADAN, Suparna F4049 338/859 97/233 0:38:54
5K 392/1010 0:41:36 3459 LISA, Harpur F5059 339/859 55/143 0:39:00
5K 393/1010 0:41:45 5457 NGUYEN, Trang F3039 340/859 68/206 0:41:21
5K 394/1010 0:41:50 5308 JOHNSON, Irene F4049 341/859 98/233 0:52:54
5K 395/1010 0:41:51 16171 MARSHALL, Tanis F4049 342/859 99/233 0:39:34
5K 396/1010 0:41:58 5718 GRAHAM, Tonesha F2029 343/859 46/122 0:41:39
5K 397/1010 0:41:59 5695 BOYLE, Andrea F5059 344/859 56/143 0:41:23
5K 398/1010 0:42:02 5310 JOSEPH, Alex M2029 50/143 10/28 0:53:05
5K 399/1010 0:42:02 5261 MASTALIC, Muharem M5059 51/143 7/21 0:40:57
5K 400/1010 0:42:04 5311 JUDKINS, Bev F5059 345/859 57/143 0:53:08
5K 401/1010 0:42:04 5260 MASTALIC, Ava F-U20 346/859 61/108 0:40:59
5K 402/1010 0:42:06 5309 JOSE, Edwin M2029 52/143 11/28 0:53:10
5K 403/1010 0:42:08 6067 VALDEZ, Darla F4049 347/859 100/233 0:42:03
5K 404/1010 0:42:09 6009 RATHJE, Jill F4049 348/859 101/233 0:42:03
5K 405/1010 0:42:12 3452 HAGEMAN, Casper M-U20 53/143 7/17 0:40:12
5K 406/1010 0:42:12 6023 ROY, Sylvie F5059 349/859 58/143 0:40:12
5K 407/1010 0:42:13 3453 ROBINSON, Keltie F3039 350/859 69/206 0:40:11
5K 408/1010 0:42:20 5508 WAGSTAFF, Abigail F-U20 351/859 62/108 0:41:14
5K 409/1010 0:42:20 16301 LIN, Jane F5059 352/859 59/143 0:39:50
5K 410/1010 0:42:20 8550 LIN, Alan M5059 54/143 8/21 0:39:54
5K 411/1010 0:42:20 5278 EDDY, Shelley F4049 353/859 102/233 0:42:19
5K 412/1010 0:42:27 3416 ROBINSON, Jessica F-U20 354/859 63/108 0:40:23
5K 413/1010 0:42:27 5647 RICHARDSON, Sofia F-U20 355/859 64/108 0:40:59
5K 414/1010 0:42:28 5646 RICHARDSON, Emma F4049 356/859 103/233 0:41:02
5K 415/1010 0:42:31 5653 JOHNSON, Kathleen F4049 357/859 104/233 0:41:21
5K 416/1010 0:42:31 5454 HOLNESS, Sherline F3039 358/859 70/206 0:41:22
5K 417/1010 0:42:32 5733 BLAIR, Melanie F4049 359/859 105/233 0:40:24
5K 418/1010 0:42:33 5739 WILLIAMSON, Stefanie F3039 360/859 71/206 0:40:24
5K 419/1010 0:42:39 5301 THOMPSON, Tami F5059 361/859 60/143 0:41:11
5K 420/1010 0:42:39 5297 HIMBEAULT, Melinda F5059 362/859 61/143 0:41:09
5K 421/1010 0:42:50 5896 FESTA, Natasha F3039 363/859 72/206 0:41:33
5K 422/1010 0:42:51 5895 FESTA, Brenda F5059 364/859 62/143 0:41:34
5K 423/1010 0:42:52 3437 KELM, Karen F4049 365/859 106/233 0:40:36
5K 424/1010 0:42:53 3438 KELM, Sydney F-U20 366/859 65/108 0:40:30
5K 425/1010 0:43:00 8615 CORTES, Julius M3039 55/143 10/30 0:39:16
5K 426/1010 0:43:00 5760 WHITEHOUSE, Natasha F4049 367/859 107/233 0:40:18
5K 427/1010 0:43:07 5793 MADDOCK, Eden F-U20 368/859 66/108 0:40:45
5K 428/1010 0:43:16 3495 CARTWRIGHT, Alana F4049 369/859 108/233 0:41:12
5K 429/1010 0:43:16 3496 CARTWRIGHT, Kristen F-U20 370/859 67/108 0:41:20
5K 430/1010 0:43:20 5413 PATEL, Utsav M2029 56/143 12/28 0:42:02
5K 431/1010 0:43:21 5794 MADDOCK, Irish Beth F4049 371/859 109/233 0:41:04
5K 432/1010 0:43:24 5755 BLACKMUR, Karen F5059 372/859 63/143 0:39:45
5K 433/1010 0:43:28 5152 FERO, Jennifer F4049 373/859 110/233 0:41:37
5K 434/1010 0:43:30 5153 LAUSBERG, Shelly F4049 374/859 111/233 0:41:39
5K 435/1010 0:43:31 5154 RISK, Amy F3039 375/859 73/206 0:41:38
5K 436/1010 0:43:31 5151 DUBIEL, Nicole F4049 376/859 112/233 0:41:40
5K 437/1010 0:43:33 5247 POLZIN, Cheryl F5059 377/859 64/143 0:39:44
5K 438/1010 0:43:38 5371 GRZELA, Janet F4049 378/859 113/233 0:43:31
5K 439/1010 0:43:42 5262 MASTEL, Madeline F-U20 379/859 68/108 0:42:47
5K 440/1010 0:43:42 3404 GARCIA, Perla F-U20 380/859 69/108 0:40:30
5K 441/1010 0:43:42 3483 SCHWANKE, Hanna F-U20 381/859 70/108 0:42:50
5K 442/1010 0:43:45 5291 SLOANE, Lisa F3039 382/859 74/206 0:42:52
5K 443/1010 0:43:45 3481 BURGMAN, Suzanne F3039 383/859 75/206 0:42:52
5K 444/1010 0:43:46 5293 SLOANE, Robin F-U20 384/859 71/108 0:42:53
5K 445/1010 0:43:46 5292 SLOANE, Matt M3039 57/143 11/30 0:42:54
5K 446/1010 0:43:54 5477 HUGHES, Dianne F6069 385/859 12/35 0:40:24
5K 447/1010 0:44:16 5524 ELD, Jen F3039 386/859 76/206 0:40:18
5K 448/1010 0:44:17 5529 WHALING, Erin F3039 387/859 77/206 0:40:19
5K 449/1010 0:44:18 3418 SHAUGHNESSY, Ava F-U20 388/859 72/108 0:42:23
5K 450/1010 0:44:19 6002 PILLING, Jennifer F4049 389/859 114/233 0:43:48
5K 451/1010 0:44:21 5849 AMONSON, Lisa F4049 390/859 115/233 0:43:49
5K 452/1010 0:44:26 5872 CLARKE, Arminty F3039 391/859 78/206 0:42:04
5K 453/1010 0:44:30 3444 BROWN, Jessica F3039 392/859 79/206 0:42:28
5K 454/1010 0:44:31 5102 MANDZIAK, Julie Ann F4049 393/859 116/233 0:42:35
5K 455/1010 0:44:34 5266 MURRAY, Sarah F-U20 394/859 73/108 0:42:13
5K 456/1010 0:44:34 6043 SO, Rae F6069 395/859 13/35 0:42:54
5K 457/1010 0:44:35 5263 MATTHEWS, Jessie F-U20 396/859 74/108 0:42:13
5K 458/1010 0:44:36 5994 PARKER, Dawn F5059 397/859 65/143 0:42:55
5K 459/1010 0:44:36 3415 NELSON, Faith F-U20 398/859 75/108 0:41:21
5K 460/1010 0:44:37 8575 FOX, Karen F9999 399/859 3/4 0:41:24
5K 461/1010 0:44:43 5876 CLAYTON, Emily F3039 400/859 80/206 0:43:50
5K 462/1010 0:44:49 5851 ARMITAGE, Christina F3039 401/859 81/206 0:41:20
5K 463/1010 0:45:00 5483 COLBOURNE, Cecilia F4049 402/859 117/233 0:43:23
5K 464/1010 0:45:01 8586 NERI GARCIA, Maria F4049 403/859 118/233 0:43:57
5K 465/1010 0:45:04 8504 OBILLO, Joy F3039 404/859 82/206 0:44:22
5K 466/1010 0:45:04 8503 OBILLO, Eann F-U20 405/859 76/108 0:44:23
5K 467/1010 0:45:07 5743 MAJURY, Sabrina F4049 406/859 119/233 0:44:44
5K 468/1010 0:45:12 5544 GRAMIAK, Amanda F3039 407/859 83/206 0:44:56
5K 469/1010 0:45:16 5624 REYES, Julienne F3039 408/859 84/206 0:41:53
5K 470/1010 0:45:17 6017 RODRIGUES, Sadie F-U20 409/859 77/108 0:44:08
5K 471/1010 0:45:18 6032 SINCLAIR, Courtney F3039 410/859 85/206 0:44:10
5K 472/1010 0:45:23 5255 CLARK, Kate F-U20 411/859 78/108 0:44:35
5K 473/1010 0:45:31 16304 LLOYD, Leslie F5059 412/859 66/143 0:38:29
5K 474/1010 0:45:39 5251 HILDAHL, Jeannelle F3039 413/859 86/206 0:45:11
5K 475/1010 0:45:43 5113 JEERH, Courtnaye F3039 414/859 87/206 0:45:16
5K 476/1010 0:45:44 5823 BEAL, Karman F3039 415/859 88/206 0:44:47
5K 477/1010 0:45:44 5824 MILLER, Paige F2029 416/859 47/122 0:44:47
5K 478/1010 0:46:05 6068 VAN SOLKEMA, Leslie F4049 417/859 120/233 0:40:45
5K 479/1010 0:46:06 5878 COOPER, Wanda F5059 418/859 67/143 0:45:07
5K 480/1010 0:46:06 5933 KARAMBOWICH, Kim F2029 419/859 48/122 0:42:56
5K 481/1010 0:46:07 6066 TURNER, Mallory F2029 420/859 49/122 0:40:45
5K 482/1010 0:46:16 5399 HUNT, Samara F2029 421/859 50/122 0:45:55
5K 483/1010 0:46:16 8524 SAUER, Chris M3039 58/143 12/30 0:45:55
5K 484/1010 0:46:16 8523 HUYNH, Vince M3039 59/143 13/30 0:45:56
5K 485/1010 0:46:21 5941 LAM, Renee F2029 422/859 51/122 0:43:16
5K 486/1010 0:46:21 5373 LOPEZ MATHEU, Veronica F4049 423/859 121/233 0:45:42
5K 487/1010 0:46:24 5123 MORRIS, Tricia F3039 424/859 89/206 0:40:50
5K 488/1010 0:46:31 6024 RUSCHEINSKI, Jessica F2029 425/859 52/122 0:43:25
5K 489/1010 0:46:32 5860 BENSARI, Nadia F2029 426/859 53/122 0:43:24
5K 490/1010 0:46:38 5641 FLEMING, Kelly F5059 427/859 68/143 0:45:13
5K 491/1010 0:46:38 5925 HILDENBRANDT, Heather F2029 428/859 54/122 0:40:47
5K 492/1010 0:46:39 5639 BOTHE, Karolyn F5059 429/859 69/143 0:45:15
5K 493/1010 0:46:39 5856 BEACH, Carrie F3039 430/859 90/206 0:40:47
5K 494/1010 0:46:41 5797 RIDLEY, Audrey F-U20 431/859 79/108 0:46:11
5K 495/1010 0:46:58 5767 FRASER, Deborah F6069 432/859 14/35 0:45:28
5K 496/1010 0:46:59 3491 PARK, Julie F5059 433/859 70/143 0:41:26
5K 497/1010 0:46:59 5766 DESSE, Hiwet M4049 60/143 18/38 0:45:30
5K 498/1010 0:47:05 5959 MASEJA, Diaya F5059 434/859 71/143 0:46:01
5K 499/1010 0:47:05 16313 MASEJA, Nicole F2029 435/859 55/122 0:45:59
5K 500/1010 0:47:24 5242 MCCANNA, Kaylan F2029 436/859 56/122 0:43:29
5K 501/1010 0:47:25 5631 BRAND, Leah F2029 437/859 57/122 0:44:52
5K 502/1010 0:47:29 6063 THOMPSON, Danika F-U20 438/859 80/108 0:44:19
5K 503/1010 0:47:33 6062 THOMPSON, Ceara F4049 439/859 122/233 0:44:25
5K 504/1010 0:47:38 3492 SELF, Dalyn F-U20 440/859 81/108 0:41:53
5K 505/1010 0:47:57 5991 PAGET, Helen F70+ 441/859 1/6 0:44:06
5K 506/1010 0:48:09 5730 CUFF, Shawna F4049 442/859 123/233 0:45:30
5K 507/1010 0:48:10 5732 O'DONNELL, Patricia F6069 443/859 15/35 0:45:32
5K 508/1010 0:48:11 8531 KEELING, Mike M3039 61/143 14/30 0:45:30
5K 509/1010 0:48:15 3431 STOJANOVIC, Teodora F-U20 444/859 82/108 0:47:49
5K 510/1010 0:48:17 5287 SCHNURR, Tracy F4049 445/859 124/233 0:48:15
5K 511/1010 0:48:17 8605 LADUKE, Michelle F5059 446/859 72/143 0:48:14
5K 512/1010 0:48:18 5644 MACNICHOL, Donna F5059 447/859 73/143 0:46:20
5K 513/1010 0:48:18 5286 SCHNURR, Madi F-U20 448/859 83/108 0:48:16
5K 514/1010 0:48:18 5648 TACIUK, Natasha F4049 449/859 125/233 0:46:21
5K 515/1010 0:48:19 5689 HORVATH, Jenaya F-U20 450/859 84/108 0:46:32
5K 516/1010 0:48:19 5688 HORVATH, Felice F5059 451/859 74/143 0:46:29
5K 517/1010 0:48:22 5863 BRADE, Shanelle F2029 452/859 58/122 0:47:24
5K 518/1010 0:48:22 3486 LAWRANCE, Alena F4049 453/859 126/233 0:45:28
5K 519/1010 0:48:24 6071 VRIENDS, Lorraine F4049 454/859 127/233 0:44:55
5K 520/1010 0:48:27 5191 GHASMI, Soraya F6069 455/859 16/35 0:45:16
5K 521/1010 0:48:27 5801 ZACKARUK-CAINES, Nicole F3039 456/859 91/206 0:44:54
5K 522/1010 0:48:30 5320 BALGANJAV, Megan F4049 457/859 128/233 0:45:11
5K 523/1010 0:48:30 6014 RINK, Alison F5059 458/859 75/143 0:48:18
5K 524/1010 0:48:31 8506 RODRIGUEZ, Jonathan M3039 62/143 15/30 0:47:48
5K 525/1010 0:48:32 13188 FILLION, Michelle F4049 459/859 129/233 0:47:52
5K 526/1010 0:48:36 5396 VO, Jenny F2029 460/859 59/122 0:47:14
5K 527/1010 0:48:36 5394 LIU, Bing Yi M2029 63/143 13/28 0:47:14
5K 528/1010 0:48:39 8533 KECK, Rhonda F3039 461/859 92/206 0:48:14
5K 529/1010 0:48:41 8534 MURRAY, Laura F3039 462/859 93/206 0:48:18
5K 530/1010 0:48:41 8590 JOSHUA-MORGAN, Tracy F3039 463/859 94/206 0:48:17
5K 531/1010 0:48:42 5256 CLARK, Tara F-U20 464/859 85/108 0:47:59
5K 532/1010 0:48:54 8505 OBILLO, Nyah F-U20 465/859 86/108 0:48:12
5K 533/1010 0:48:54 8507 RODRIGUEZ, Thermie F3039 466/859 95/206 0:48:13
5K 534/1010 0:48:55 5157 BROADHURST, Victoria F4049 467/859 130/233 0:48:03
5K 535/1010 0:48:55 5159 KAI, Dodie F4049 468/859 131/233 0:48:04
5K 536/1010 0:49:05 5339 BLAIS, Steven M2029 64/143 14/28 0:43:19
5K 537/1010 0:49:06 5340 HOOD, Janice F5059 469/859 76/143 0:43:19
5K 538/1010 0:49:08 5880 COSTINAK, Wanda F4049 470/859 132/233 0:44:14
5K 539/1010 0:49:12 8580 HILL, Thomas M9999 65/143 1/1 0:48:57
5K 540/1010 0:49:12 5702 HILL, Thomas M5059 66/143 9/21 0:48:58
5K 541/1010 0:49:13 5926 HILL, Todd M5059 67/143 10/21 0:48:58
5K 542/1010 0:49:14 5162 MAGLANGIT, Alfer M3039 68/143 16/30 0:48:19
5K 543/1010 0:49:14 8579 HILL, Sharon F5059 471/859 77/143 0:48:58
5K 544/1010 0:49:14 5701 HILL, Sharon F5059 472/859 78/143 0:48:57
5K 545/1010 0:49:34 5248 ROSINA, Nicole F3039 473/859 96/206 0:45:28
5K 546/1010 0:49:36 5884 DRHA, Melina F4049 474/859 133/233 0:48:29
5K 547/1010 0:49:39 5978 MURRAY, Jeannette F4049 475/859 134/233 0:47:49
5K 548/1010 0:49:40 5265 MURRAY, Marion F4049 476/859 135/233 0:47:18
5K 549/1010 0:49:42 5264 MATTHEWS, Lorelei F4049 477/859 136/233 0:47:19
5K 550/1010 0:49:55 5168 GUSTAFSON, Lindsay F4049 478/859 137/233 0:42:50
5K 551/1010 0:49:59 5460 LAFRENIERE, Jenn F4049 479/859 138/233 0:49:30
5K 552/1010 0:50:00 8540 COOK, Nicole F4049 480/859 139/233 1:01:04
5K 553/1010 0:50:03 5132 HUEBERT, Melanie F3039 481/859 97/206 0:48:40
5K 554/1010 0:50:04 8551 MAPESO, Modesto M4049 69/143 19/38 0:46:34
5K 555/1010 0:50:10 16258 GODARD, Patricia F4049 482/859 140/233 0:49:25
5K 556/1010 0:50:13 5540 ALLEN, Liam M-U20 70/143 8/17 0:43:08
5K 557/1010 0:50:14 8612 BOND, Jennifer F4049 483/859 141/233 0:49:04
5K 558/1010 0:50:20 5539 ALLEN, Kiera F-U20 484/859 87/108 0:43:16
5K 559/1010 0:50:22 8588 COOPER, Barbara F6069 485/859 17/35 0:47:09
5K 560/1010 0:50:23 5249 BIENZ, Brigette F3039 486/859 98/206 0:47:11
5K 561/1010 0:50:24 5541 ALLEN, Myra F4049 487/859 142/233 0:43:24
5K 562/1010 0:50:26 5538 ALLEN, Jon M4049 71/143 20/38 0:43:24
5K 563/1010 0:50:26 5197 PEZZENTE, Victoria F3039 488/859 99/206 0:47:29
5K 564/1010 0:50:27 5250 CAMERON, Cheryl F5059 489/859 79/143 0:47:12
5K 565/1010 0:50:30 8595 HOUSTON, Mary Ann F5059 490/859 80/143 0:49:35
5K 566/1010 0:50:31 5911 GLUBISH, Rebecca F-U20 491/859 88/108 0:47:13
5K 567/1010 0:50:33 5912 GLUBISH, Sarah F4049 492/859 143/233 0:47:14
5K 568/1010 0:50:34 6050 TAYLOR, Angela F4049 493/859 144/233 0:44:40
5K 569/1010 0:50:50 5579 LEE, Amanda F2029 494/859 60/122 0:46:03
5K 570/1010 0:50:53 5989 OUELLET, Nancy F4049 495/859 145/233 0:48:19
5K 571/1010 0:50:54 5195 MOSTAGHIM, Bergis F3039 496/859 100/206 0:48:22
5K 572/1010 0:50:56 5705 LIU, Fei F4049 497/859 146/233 0:50:21
5K 573/1010 0:51:01 5581 LEE, Susan F2029 498/859 61/122 0:46:16
5K 574/1010 0:51:02 5580 LEE, Danielle     0:46:14
5K 575/1010 0:51:08 5604 KHOSROWZADEH, Shirin F2029 499/859 62/122 0:49:40
5K 576/1010 0:51:13 5199 TEHRANI, Donya F2029 500/859 63/122 0:47:58
5K 577/1010 0:51:15 5189 AVDIC, Edina F2029 501/859 64/122 0:48:01
5K 578/1010 0:51:17 5610 WINTERBURN, Chiemi F4049 502/859 147/233 0:49:36
5K 579/1010 0:51:18 6060 THOMAS, Karen F4049 503/859 148/233 0:49:02
5K 580/1010 0:51:18 6061 THOMAS, Kennedy F4049 504/859 149/233 0:49:01
5K 581/1010 0:51:20 8572 KEEFE, Amanda F4049 505/859 150/233 0:47:28
5K 582/1010 0:51:20 8570 LALONDE, Brian M4049 72/143 21/38 0:47:22
5K 583/1010 0:51:33 6008 RASMUSSEN, Shannon F2029 506/859 65/122 0:49:20
5K 584/1010 0:51:34 6007 RASMUSSEN, Karen F5059 507/859 81/143 0:49:21
5K 585/1010 0:51:40 5325 TRAN, Heather F3039 508/859 101/206 0:48:09
5K 586/1010 0:51:40 5881 DERKSEN, Amanda F3039 509/859 102/206 1:02:44
5K 587/1010 0:51:48 5259 KNOX, Kim F3039 510/859 103/206 0:51:04
5K 588/1010 0:51:48 5230 GONCI, Calum M-U20 73/143 9/17 0:48:21
5K 589/1010 0:51:48 5229 GONCI, Avalon F-U20 511/859 89/108 0:45:51
5K 590/1010 0:51:49 5231 GONCI, Darcy M4049 74/143 22/38 0:48:21
5K 591/1010 0:51:52 5232 PARR, Beth F6069 512/859 18/35 0:45:55
5K 592/1010 0:51:56 5245 OJEMAKINDE, Moses M5059 75/143 11/21 0:47:51
5K 593/1010 0:51:57 5236 COATES, Brittany F2029 513/859 66/122 0:47:50
5K 594/1010 0:51:57 5243 MORROW, Dana F3039 514/859 104/206 0:47:52
5K 595/1010 0:51:58 16270 HEENAN SNEESNY, Lindsey F3039 515/859 105/206 0:51:24
5K 596/1010 0:52:00 5775 SHERRY, Catherine F4049 516/859 151/233 0:50:12
5K 597/1010 0:52:08 5835 BAIG, Rubina F5059 517/859 82/143 0:49:23
5K 598/1010 0:52:17 8529 MERGAERT, Kenzie F2029 518/859 67/122 0:49:32
5K 599/1010 0:52:18 8522 BEATON, Brady M-U20 76/143 10/17 1:03:21
5K 600/1010 0:52:19 5471 HANSON, Marissa F2029 519/859 68/122 1:03:23
5K 601/1010 0:52:30 16109 GRAY, Diana F5059 520/859 83/143 0:52:04
5K 602/1010 0:52:32 5583 WRIGHT, Angela F4049 521/859 152/233 0:52:07
5K 603/1010 0:52:36 5638 SMITH, Cindy F5059 522/859 84/143 1:02:04
5K 604/1010 0:52:40 5634 BEATON, Jill F5059 523/859 85/143 1:02:08
5K 605/1010 0:52:41 5619 HA, Charlene F3039 524/859 106/206 0:52:31
5K 606/1010 0:52:41 6006 RANDELL, Sophie F-U20 525/859 90/108 0:52:31
5K 607/1010 0:52:41 5628 YEN, Ray M3039 77/143 17/30 1:03:45
5K 608/1010 0:52:42 5625 VO, Mary F3039 526/859 107/206 0:52:32
5K 609/1010 0:52:44 5731 LAFLEUR, Maurice M6069 78/143 2/4 0:49:45
5K 610/1010 0:52:54 5279 FULTON, Amanda F-U20 527/859 91/108 0:48:51
5K 611/1010 0:52:55 5509 WAGSTAFF, Bobbi F3039 528/859 108/206 0:51:36
5K 612/1010 0:52:56 5929 HUGHES, Jessica F4049 529/859 153/233 0:46:59
5K 613/1010 0:52:58 5305 DARLING, Nathan M2029 79/143 15/28 0:51:33
5K 614/1010 0:52:58 5276 COURTNEY, Tina F4049 530/859 154/233 0:48:59
5K 615/1010 0:52:58 5290 ZACH, Zach M2029 80/143 16/28 0:48:53
5K 616/1010 0:53:01 5995 PATEL, Pooja F-U20 531/859 92/108 0:49:35
5K 617/1010 0:53:02 5329 ABDELREHIM, Nadine F3039 532/859 109/206 0:48:20
5K 618/1010 0:53:03 5515 WERNIKOWSKI-WOO, Christine F3039 533/859 110/206 0:49:37
5K 619/1010 0:53:04 5338 WUNDERLER, Danielle F3039 534/859 111/206 0:48:14
5K 620/1010 0:53:05 5768 GILL, Robyn F2029 535/859 69/122 0:51:25
5K 621/1010 0:53:06 5765 CHETH, Lendy F3039 536/859 112/206 0:51:36
5K 622/1010 0:53:06 5772 KOSUMI, Buche F3039 537/859 113/206 0:51:39
5K 623/1010 0:53:07 5817 HABERMEL, Anna F5059 538/859 86/143 0:49:44
5K 624/1010 0:53:08 5660 KELLEHER, Dianne F4049 539/859 155/233 0:46:13
5K 625/1010 0:53:08 5818 HURD, Melissa F3039 540/859 114/206 0:49:48
5K 626/1010 0:53:09 16186 FUNG, Carol F3039 541/859 115/206 0:49:46
5K 627/1010 0:53:09 5819 MADRID, Vanessa F4049 542/859 156/233 0:49:51
5K 628/1010 0:53:09 5972 MILES, Mary Ann F3039 543/859 116/206 0:48:58
5K 629/1010 0:53:10 5820 PASLAWSKI, Rebekka F2029 544/859 70/122 0:49:48
5K 630/1010 0:53:11 5971 MILES, Karen Ann F5059 545/859 87/143 0:48:55
5K 631/1010 0:53:11 6064 THREESUNS, Lyndsey F3039 546/859 117/206 0:50:01
5K 632/1010 0:53:12 6045 SQUIRREL, Kai F-U20 547/859 93/108 0:50:01
5K 633/1010 0:53:13 5814 KIESER, Coreen F5059 548/859 88/143 0:48:57
5K 634/1010 0:53:13 5815 KIESER, David M5059 81/143 12/21 0:48:54
5K 635/1010 0:53:14 8564 GOUGH, Susan F5059 549/859 89/143 0:51:06
5K 636/1010 0:53:14 5997 PATEL, Urvi F3039 550/859 118/206 0:49:51
5K 637/1010 0:53:14 8619 NIZAR, Ruby F2029 551/859 71/122 0:51:08
5K 638/1010 0:53:15 5762 AINSCOUGH, Lynell F4049 552/859 157/233 0:51:30
5K 639/1010 0:53:15 5996 PATEL, Soham M-U20 82/143 11/17 0:49:48
5K 640/1010 0:53:15 5771 HUSTON, Jessica F3039 553/859 119/206 0:51:29
5K 641/1010 0:53:24 16183 MACEY, Julie F4049 554/859 158/233 0:49:58
5K 642/1010 0:53:31 5632 BEATON, Cory M4049 83/143 23/38 0:50:57
5K 643/1010 0:53:32 16184 WEED, Sherri F5059 555/859 90/143 0:50:09
5K 644/1010 0:53:35 5635 BEATON, Walker M-U20 84/143 12/17 0:51:01
5K 645/1010 0:53:47 5145 KOSKI, Annette F5059 556/859 91/143 0:49:28
5K 646/1010 0:53:50 5140 BERTOLIN, Sue F5059 557/859 92/143 0:49:28
5K 647/1010 0:53:52 5139 BERTOLIN, Emanuel M5059 85/143 13/21 0:49:32
5K 648/1010 0:53:52 5312 NARVQEZ, Mathew M-U20 86/143 13/17 0:52:29
5K 649/1010 0:53:52 5146 KOSKI, Mick M5059 87/143 14/21 0:49:35
5K 650/1010 0:53:57 5568 PHANEUF, Laura F2029 558/859 72/122 1:05:01
5K 651/1010 0:53:57 5567 KEIKO, Diana F3039 559/859 120/206 0:51:38
5K 652/1010 0:54:01 5986 NTUTHA, Siboniso F3039 560/859 121/206 0:51:13
5K 653/1010 0:54:06 5155 ABU EL SHOUHOUD, Ahmed M4049 88/143 24/38 0:53:11
5K 654/1010 0:54:07 5156 BOAKE, Rosslynn F4049 561/859 159/233 0:53:12
5K 655/1010 0:54:09 5161 LAHAY, Leyla F4049 562/859 160/233 0:53:18
5K 656/1010 0:54:10 5163 WHALLEY, Kelsey F3039 563/859 122/206 0:53:17
5K 657/1010 0:54:10 5784 DUDAR, Jennifer F3039 564/859 123/206 0:52:55
5K 658/1010 0:54:15 5128 FOSTER, Jane F4049 565/859 161/233 0:52:12
5K 659/1010 0:54:15 5316 STOJSIC, Danijela F4049 566/859 162/233 0:52:54
5K 660/1010 0:54:16 5306 GOMEZ, Diana F3039 567/859 124/206 0:52:54
5K 661/1010 0:54:18 5430 DULLAT, Charan Kamal M4049 89/143 25/38 0:49:55
5K 662/1010 0:54:19 5439 TAMBORINE, Devan M2029 90/143 17/28 0:49:13
5K 663/1010 0:54:20 5535 HARLEY, Kay F-U20 568/859 94/108 0:52:38
5K 664/1010 0:54:21 5273 BOSCHMAN, Christa F4049 569/859 163/233 0:52:09
5K 665/1010 0:54:23 5536 HARLEY, Lorraine F4049 570/859 164/233 0:52:44
5K 666/1010 0:54:23 5402 TSOI, Tony M4049 91/143 26/38 0:49:25
5K 667/1010 0:54:31 5547 LYALL, Alex F3039 571/859 125/206 0:49:11
5K 668/1010 0:54:37 5321 CHUCK, Abdulkarim M2029 92/143 18/28 0:51:03
5K 669/1010 0:54:38 5324 TESFALASIE, Weiny F2029 572/859 73/122 0:51:20
5K 670/1010 0:54:38 5289 THOMAS-SCHAEFER, Christine F4049 573/859 165/233 0:50:40
5K 671/1010 0:54:39 5282 JONES, Elena F4049 574/859 166/233 0:50:40
5K 672/1010 0:54:39 5280 GIROVA, Anna F4049 575/859 167/233 0:50:39
5K 673/1010 0:54:41 5281 JONES, Brian M4049 93/143 27/38 0:50:34
5K 674/1010 0:54:43 5769 HAFEZ, Ahmed M4049 94/143 28/38 0:50:00
5K 675/1010 0:54:43 5947 LOW, Joanna F4049 576/859 168/233 0:50:33
5K 676/1010 0:54:44 5776 WAHIDI, Tamanna F3039 577/859 126/206 0:53:16
5K 677/1010 0:54:46 6019 ROMMAN, Tammy F4049 578/859 169/233 0:50:41
5K 678/1010 0:54:49 8526 ANDERSON, Stacy F2029 579/859 74/122 0:52:58
5K 679/1010 0:54:52 3433 COOPER, Sydney F-U20 580/859 95/108 0:52:34
5K 680/1010 0:54:53 3436 FRANSSEN, Deanna F5059 581/859 93/143 0:52:35
5K 681/1010 0:54:56 5692 SANDERS, Tracey F2029 582/859 75/122 0:53:08
5K 682/1010 0:54:59 5935 KILLEN, Lynn F4049 583/859 170/233 0:50:49
5K 683/1010 0:55:12 5428 CAVALHEIRO, Ashley F3039 584/859 127/206 0:49:38
5K 684/1010 0:55:15 3405 GAW, Janet F-U20 585/859 96/108 0:50:08
5K 685/1010 0:55:23 8548 KERN, Monica F5059 586/859 94/143 0:53:36
5K 686/1010 0:55:26 5254 ANDRES, Zoe F-U20 587/859 97/108 0:54:34
5K 687/1010 0:55:27 5253 ANDRES, Becky F3039 588/859 128/206 0:54:32
5K 688/1010 0:55:28 5601 KARRAN, Colleen F5059 589/859 95/143 0:52:36
5K 689/1010 0:55:30 5599 CHAFE, Janet F5059 590/859 96/143 0:52:40
5K 690/1010 0:55:30 8599 GIERUS, Christina F4049 591/859 171/233 0:52:37
5K 691/1010 0:55:39 5283 LACLARE, Sharon F4049 592/859 172/233 0:51:41
5K 692/1010 0:55:39 5275 CHOMISKI, Lisa F4049 593/859 173/233 0:51:41
5K 693/1010 0:55:41 5400 SALIHA, Alex M4049 95/143 29/38 0:50:12
5K 694/1010 0:55:41 5822 CHENG, Patrick M4049 96/143 30/38 0:50:39
5K 695/1010 0:55:42 5821 CHENG, Melissa F4049 594/859 174/233 0:50:39
5K 696/1010 0:55:47 5485 ALWOOD, Marynah F2029 595/859 76/122 0:54:44
5K 697/1010 0:55:47 5496 HICKS, Sarah F3039 596/859 129/206 0:54:47
5K 698/1010 0:55:49 5502 LEUNG, Christina F3039 597/859 130/206 0:54:50
5K 699/1010 0:55:51 5486 BASSI, Navjot F3039 598/859 131/206 0:54:49
5K 700/1010 0:55:52 5176 BHATTI, Barinder F3039 599/859 132/206 0:52:49
5K 701/1010 0:55:53 5177 KLAIR, Harveen F4049 600/859 175/233 0:52:48
5K 702/1010 0:55:57 5518 SEEFELDT, Shayne M4049 97/143 31/38 0:51:02
5K 703/1010 0:55:59 5516 BIRD, Trudy F4049 601/859 176/233 0:51:05
5K 704/1010 0:56:00 5520 TANNER, Pamela F3039 602/859 133/206 0:51:08
5K 705/1010 0:56:00 5519 SEEFELDT, Shelley F5059 603/859 97/143 0:51:03
5K 706/1010 0:56:02 5521 WATKINS, Donna F3039 604/859 134/206 0:51:08
5K 707/1010 0:56:17 5150 VAN DOORN, Chris M3039 98/143 18/30 0:51:45
5K 708/1010 0:56:18 5158 CHARARA, Eman F4049 605/859 177/233 0:55:23
5K 709/1010 0:56:22 5149 TIMOFFEE, Jodie F3039 606/859 135/206 0:51:45
5K 710/1010 0:56:25 16009 FRACHE, Kim F5059 607/859 98/143 0:53:31
5K 711/1010 0:56:27 5130 WILLIAMS, Jeanie F3039 608/859 136/206 0:54:20
5K 712/1010 0:56:28 8606 THOMPSON, Beverley F5059 609/859 99/143 0:53:35
5K 713/1010 0:56:34 16068 KHALIL, Bakir M3039 99/143 19/30 0:52:00
5K 714/1010 0:56:43 5724 WOOLETT, Ashleigh F3039 610/859 137/206 0:52:56
5K 715/1010 0:56:44 5722 POLLARD, Lauralee F4049 611/859 178/233 0:52:58
5K 716/1010 0:56:45 5437 RAMNANAN, Michele F5059 612/859 100/143 0:52:01
5K 717/1010 0:56:45 5719 LOVETT, Donna F4049 613/859 179/233 0:52:57
5K 718/1010 0:56:46 5720 MCCOOMB, Samantha F2029 614/859 77/122 0:53:00
5K 719/1010 0:56:54 5134 LO, Cindy F2029 615/859 78/122 1:07:57
5K 720/1010 0:56:59 6021 ROTHSTEIN, Georgette F4049 616/859 180/233 0:51:46
5K 721/1010 0:56:59 5985 NOWLIN, Lisa F4049 617/859 181/233 0:51:47
5K 722/1010 0:57:01 6022 ROTHSTEIN, Maya F-U20 618/859 98/108 0:51:42
5K 723/1010 0:57:03 6056 TENNENT, Allison F3039 619/859 138/206 0:50:42
5K 724/1010 0:57:04 5845 AHRENS, Morgyn F3039 620/859 139/206 0:50:44
5K 725/1010 0:57:15 5227 SOMANI, Taz F5059 621/859 101/143 0:54:39
5K 726/1010 0:57:16 5222 MURPHY, Tara F2029 622/859 79/122 0:54:41
5K 727/1010 0:57:16 5224 NOVAKOVA, Barb F3039 623/859 140/206 0:54:40
5K 728/1010 0:57:36 5754 TOMARAS, Theonny F4049 624/859 182/233 0:51:03
5K 729/1010 0:57:36 5190 CHAMOUN, Sarah F3039 625/859 141/206 0:54:27
5K 730/1010 0:57:37 5133 KINTZINGER, Alicia F3039 626/859 142/206 1:08:40
5K 731/1010 0:57:37 5753 SANDHU, Manpreet F3039 627/859 143/206 0:51:03
5K 732/1010 0:57:42 5136 OSHINUBI, Baba M4049 100/143 32/38 1:08:45
5K 733/1010 0:57:44 8569 FORSYTH, Yulia F4049 628/859 183/233 0:55:18
5K 734/1010 0:57:45 8568 VIDRASHU, Kristina F4049 629/859 184/233 0:55:16
5K 735/1010 0:57:46 5193 KAZEMI, Kaveh M3039 101/143 20/30 0:54:49
5K 736/1010 0:57:47 5196 PASHA, Shanaz F3039 630/859 144/206 0:54:44
5K 737/1010 0:57:47 5906 FUNG, Edith F5059 631/859 102/143 0:56:21
5K 738/1010 0:57:50 5174 WOO, Charlotte F6069 632/859 19/35 0:56:28
5K 739/1010 0:57:50 5241 MACLELLAN, Julia F2029 633/859 80/122 0:54:14
5K 740/1010 0:57:50 8537 AMBACH, Dana F3039 634/859 145/206 0:56:16
5K 741/1010 0:57:50 5693 SONDERGAARD, Amanda F3039 635/859 146/206 0:56:12
5K 742/1010 0:57:50 5237 DIRK, Brett F2029 636/859 81/122 0:54:15
5K 743/1010 0:57:55 5207 NGO, Christina F3039 637/859 147/206 0:54:15
5K 744/1010 0:57:56 5208 NGO, Katrina F2029 638/859 82/122 0:54:08
5K 745/1010 0:57:56 5204 CHAN, Dana F3039 639/859 148/206 0:54:10
5K 746/1010 0:57:57 5210 VUONG, Jessica F2029 640/859 83/122 0:54:12
5K 747/1010 0:57:58 5205 DAWKINS, Kimberly F3039 641/859 149/206 0:54:12
5K 748/1010 0:57:58 5209 VUONG, Jennifer F3039 642/859 150/206 0:54:17
5K 749/1010 0:57:58 5206 LEW, Eva F3039 643/859 151/206 0:54:12
5K 750/1010 0:57:58 3477 SMITH, Tracey F5059 644/859 103/143 0:53:00
5K 751/1010 0:58:00 3476 IDICA, Mitzie F4049 645/859 185/233 0:52:57
5K 752/1010 0:58:00 5328 WIENS, Amanda F2029 646/859 84/122 0:54:29
5K 753/1010 0:58:02 5921 HANDBERG, Shawna F4049 647/859 186/233 0:54:19
5K 754/1010 0:58:05 5988 OROSZ, Paulette F4049 648/859 187/233 0:54:17
5K 755/1010 0:58:10 5390 CROTEAU, Megan F2029 649/859 85/122 0:54:54
5K 756/1010 0:58:11 6058 TETZ, Katrina F3039 650/859 152/206 0:54:01
5K 757/1010 0:58:13 8528 DELONG, Sarah F3039 651/859 153/206 0:56:30
5K 758/1010 0:58:14 5687 FRIESEN, Pam F2029 652/859 86/122 0:56:29
5K 759/1010 0:58:16 5981 NELSON, Melanie F4049 653/859 188/233 0:54:47
5K 760/1010 0:58:20 5773 MAUNDER, Coralee F3039 654/859 154/206 0:56:30
5K 761/1010 0:58:21 5203 NIMMON, Patrick M4049 102/143 33/38 0:54:22
5K 762/1010 0:58:21 5603 HAYES, Lily F-U20 655/859 99/108 0:56:43
5K 763/1010 0:58:22 3485 HAMMOUD, Nader M4049 103/143 34/38 0:53:19
5K 764/1010 0:58:22 8623 HAMMOUD, Serena F-U20 656/859 100/108 0:53:22
5K 765/1010 0:58:22 5201 NIMMON, Casper M-U20 104/143 14/17 0:54:24
5K 766/1010 0:58:23 5202 NIMMON, Harriet F-U20 657/859 101/108 0:54:23
5K 767/1010 0:58:23 5774 MINHAS, Harinder F4049 658/859 189/233 0:56:49
5K 768/1010 0:58:25 5605 LUPYPCIW, Caroline F3039 659/859 155/206 0:56:47
5K 769/1010 0:58:26 5850 ANDERSON, Lannie F3039 660/859 156/206 0:55:58
5K 770/1010 0:58:27 5606 MCKEEMAN, Anna F2029 661/859 87/122 0:56:53
5K 771/1010 0:58:29 5837 HARACH-VATNE, Susanne F5059 662/859 104/143 0:55:51
5K 772/1010 0:58:29 5304 ALEXANDER, Kate F2029 663/859 88/122 0:55:09
5K 773/1010 0:58:30 5607 PAATAN, Xyleen F2029 664/859 89/122 0:56:56
5K 774/1010 0:58:31 5120 BAKER, Lisa F3039 665/859 157/206 0:55:52
5K 775/1010 0:58:31 5602 GARCIA, Kamilah F2029 666/859 90/122 0:57:06
5K 776/1010 0:58:31 5148 STEELE, Kim F3039 667/859 158/206 0:55:12
5K 777/1010 0:58:32 5829 OLSON, Lisa F3039 668/859 159/206 0:55:39
5K 778/1010 0:58:34 16176 JAMES, Brad M5059 105/143 15/21 0:56:23
5K 779/1010 0:58:34 8622 HAMMOUD, Leah F-U20 669/859 102/108 0:53:31
5K 780/1010 0:58:35 16177 JAMES, Sydney M2029 106/143 19/28 0:56:26
5K 781/1010 0:58:36 3487 SHIDLER, Maddie F2029 670/859 91/122 0:55:38
5K 782/1010 0:58:37 8620 ABOU-KHEIR, Nadine F9999 671/859 4/4 0:53:33
5K 783/1010 0:58:37 3484 GEORGSON, Ashley F2029 672/859 92/122 0:55:40
5K 784/1010 0:58:37 5758 JAMES, Robbi F5059 673/859 105/143 0:56:24
5K 785/1010 0:58:39 5233 BADIOU, Tammy F5059 674/859 106/143 0:54:48
5K 786/1010 0:58:40 5563 CARBERRY, Stephanie F3039 675/859 160/206 0:56:08
5K 787/1010 0:58:41 5114 AHMED, Nicole F3039 676/859 161/206 0:54:29
5K 788/1010 0:58:41 8608 AHMED, Aly F3039 677/859 162/206 0:54:29
5K 789/1010 0:58:41 5569 VERBEEK, Veronica F3039 678/859 163/206 0:56:05
5K 790/1010 0:58:42 5341 JORDAN, Hope F2029 679/859 93/122 0:53:01
5K 791/1010 0:58:44 5885 DUBOIS, Monique F5059 680/859 107/143 0:55:13
5K 792/1010 0:58:44 5342 LEE, Josh M2029 107/143 20/28 0:53:06
5K 793/1010 0:58:45 5344 POSWIATA, Megan F3039 681/859 164/206 0:53:06
5K 794/1010 0:58:47 5198 TEHRANI, Ayda F3039 682/859 165/206 0:55:43
5K 795/1010 0:58:47 5684 MAHALINGHAM, Aisling F4049 683/859 190/233 0:56:24
5K 796/1010 0:58:50 5194 KAZEMI, Yalda F3039 684/859 166/206 0:55:47
5K 797/1010 0:58:50 8597 KONG, Jiyoung F4049 685/859 191/233 0:55:43
5K 798/1010 0:58:51 5398 FACUNDO, Glemerl May F2029 686/859 94/122 0:55:53
5K 799/1010 0:58:55 5715 NEWTON, Donna F6069 687/859 20/35 0:58:11
5K 800/1010 0:58:55 5716 SHIMBASHI, Jenny F5059 688/859 108/143 0:58:06
5K 801/1010 0:58:56 5714 MURPHY, Val F5059 689/859 109/143 0:58:10
5K 802/1010 0:59:02 5826 CHERNUSKA, Chris M3039 108/143 21/30 0:56:11
5K 803/1010 0:59:04 5830 ST. HILAIRE, Leni F5059 690/859 110/143 0:56:08
5K 804/1010 0:59:10 5345 RUBIN, Josh M4049 109/143 35/38 0:58:33
5K 805/1010 0:59:20 5711 CODERRE, Marilyn F6069 691/859 21/35 0:58:31
5K 806/1010 0:59:20 5712 CORRIGAN, Brenda F5059 692/859 111/143 0:58:34
5K 807/1010 0:59:22 5650 GURTLER, Dan M5059 110/143 16/21 0:56:51
5K 808/1010 0:59:23 5651 GURTLER, Kathy F5059 693/859 112/143 0:56:52
5K 809/1010 0:59:26 5649 DE BONO-KOST, Alexandra F6069 694/859 22/35 0:56:56
5K 810/1010 0:59:26 16130 SAID, Nura F5059 695/859 113/143 0:55:53
5K 811/1010 0:59:26 5326 VISHEMBERA, Metreyi F3039 696/859 167/206 0:56:09
5K 812/1010 0:59:27 16129 SAID, Batule F2029 697/859 95/122 0:55:53
5K 813/1010 0:59:27 5322 KHEDER, Nasma F3039 698/859 168/206 0:56:06
5K 814/1010 0:59:41 5936 KINDRAT, Gaylene F6069 699/859 23/35 0:54:33
5K 815/1010 0:59:41 5865 BRADY, Shauna F4049 700/859 192/233 0:54:31
5K 816/1010 0:59:45 5620 KOLOMIJCHUK, Holly F4049 701/859 193/233 0:56:08
5K 817/1010 0:59:46 5160 KOLOMIJCHUK, Chelsea F-U20 702/859 103/108 0:55:58
5K 818/1010 0:59:47 5551 HTUCHINGS, Kim F5059 703/859 114/143 0:56:08
5K 819/1010 0:59:47 3494 THOMSON, Haylee F-U20 704/859 104/108 0:54:01
5K 820/1010 0:59:51 5336 NELSON, Michelle F3039 705/859 169/206 0:55:02
5K 821/1010 0:59:52 5403 UNDIN, Tyler M2029 111/143 21/28 0:54:54
5K 822/1010 0:59:54 5840 PARKER, Amy F3039 706/859 170/206 0:57:10
5K 823/1010 0:59:55 5397 BURR, Laura F2029 707/859 96/122 0:54:58
5K 824/1010 0:59:59 5834 AHMED, Tina F5059 708/859 115/143 0:57:15
5K 825/1010 1:00:09 5424 SORATHIA, Rumina F5059 709/859 116/143 0:55:55
5K 826/1010 1:00:10 5419 LUJ, Darjl M5059 112/143 17/21 0:55:58
5K 827/1010 1:00:10 5416 BEAUDOIN, Shannon F4049 710/859 194/233 0:55:55
5K 828/1010 1:00:21 5737 LESLIE, Lisa F4049 711/859 195/233 0:58:03
5K 829/1010 1:00:22 8567 FREITAS, Diego M3039 113/143 22/30 0:57:43
5K 830/1010 1:00:23 8566 FREITAS, Laurie F3039 712/859 171/206 0:57:43
5K 831/1010 1:00:24 5418 LAWRENCE, Jeanette F4049 713/859 196/233 0:56:06
5K 832/1010 1:00:43 5828 KUNTZ, Cindy F5059 714/859 117/143 0:57:45
5K 833/1010 1:00:44 5827 DECAMPOS, Debbie F5059 715/859 118/143 0:57:45
5K 834/1010 1:00:54 5188 VAN WINKLE, Ashley F3039 716/859 172/206 0:54:54
5K 835/1010 1:00:55 5185 EVANS, Laura F3039 717/859 173/206 0:54:56
5K 836/1010 1:00:55 5187 LLOYD, Donna F6069 718/859 24/35 0:54:55
5K 837/1010 1:00:56 5186 GUCKERT, Lindsey F3039 719/859 174/206 0:54:56
5K 838/1010 1:00:58 3489 MARCEAU, Nicole F2029 720/859 97/122 0:55:09
5K 839/1010 1:01:04 3488 LESLIE, Mike M5059 114/143 18/21 0:55:16
5K 840/1010 1:01:17 5750 EWENS, Steve M5059 115/143 19/21 0:58:03
5K 841/1010 1:01:17 5752 REHM, Jolayne F3039 721/859 175/206 0:57:56
5K 842/1010 1:01:37 5277 DALKE, Kendra F3039 722/859 176/206 0:57:31
5K 843/1010 1:01:37 5274 BOWN, Bree F3039 723/859 177/206 0:57:38
5K 844/1010 1:01:42 5288 TAMONDONG, Vina F3039 724/859 178/206 0:58:54
5K 845/1010 1:01:43 5271 BACHECHA, Kristine F2029 725/859 98/122 0:58:54
5K 846/1010 1:01:44 5272 BENBICH, Khris F3039 726/859 179/206 0:58:53
5K 847/1010 1:01:44 5352 DEMONTEVERDE, Dynah F3039 727/859 180/206 0:57:42
5K 848/1010 1:01:45 5354 GOR, Chaitnya M2029 116/143 22/28 0:57:45
5K 849/1010 1:01:46 5244 MORRROW, Dana F3039 728/859 181/206 0:57:54
5K 850/1010 1:01:48 5685 DEGOEIJ, Andrea F4049 729/859 197/233 0:59:56
5K 851/1010 1:01:51 5385 GREENE, Brianna F2029 730/859 99/122 0:57:23
5K 852/1010 1:01:53 5686 DEGOEIJ, Jack M70+ 117/143 2/4 0:59:57
5K 853/1010 1:01:54 5386 POLSOM, Danielle F3039 731/859 182/206 0:57:30
5K 854/1010 1:01:58 5117 DEGOEIJ, Jacqueline F4049 732/859 198/233 1:00:03
5K 855/1010 1:02:01 16055 FERNANDO, Ashley F3039 733/859 183/206 1:01:11
5K 856/1010 1:02:09 5393 GREWAL, Sukhi F3039 734/859 184/206 1:01:17
5K 857/1010 1:02:14 6054 TENHOVE, Maria F4049 735/859 199/233 1:12:58
5K 858/1010 1:02:25 8532 KNIGHT, Sanya F4049 736/859 200/233 0:59:42
5K 859/1010 1:02:25 5839 MASON, Lisa F5059 737/859 119/143 0:59:43
5K 860/1010 1:02:27 5836 CONNELL, Pauline F5059 738/859 120/143 0:59:40
5K 861/1010 1:02:31 5411 O'BRIEN, Cheryl F4049 739/859 201/233 0:56:19
5K 862/1010 1:02:32 5135 MERU, Shirin F4049 740/859 202/233 1:01:04
5K 863/1010 1:02:34 5410 O'BRIEN, Brendan M-U20 118/143 15/17 0:56:14
5K 864/1010 1:02:35 5409 HOLMES, Cheryl F4049 741/859 203/233 0:56:21
5K 865/1010 1:02:35 8648 REG, Late     0:56:18
5K 866/1010 1:02:40 5343 PATEL, Bhumi F2029 742/859 100/122 0:56:55
5K 867/1010 1:02:53 3493 SMITH, Pauline F5059 743/859 121/143 0:57:05
5K 868/1010 1:02:56 5764 BAUTISTA, Vilma F4049 744/859 204/233 1:01:13
5K 869/1010 1:02:59 5763 ARQUIZA, Mary Ann F4049 745/859 205/233 1:01:13
5K 870/1010 1:03:05 8596 RADWAN, Maha F3039 746/859 185/206 0:59:54
5K 871/1010 1:03:06 5401 TESFAMARIAM, Hermon F3039 747/859 186/206 1:00:15
5K 872/1010 1:03:19 5395 PATEL, Seema F4049 748/859 206/233 1:02:29
5K 873/1010 1:03:23 5391 DATOO, Anar F4049 749/859 207/233 1:00:01
5K 874/1010 1:03:24 5990 OXTON, Vanessa F3039 750/859 187/206 0:58:53
5K 875/1010 1:03:25 16056 MODI, Vandan M2029 119/143 23/28 1:00:03
5K 876/1010 1:03:26 5112 RUPERT, Brenda F3039 751/859 188/206 1:00:50
5K 877/1010 1:03:28 5810 DOWNIE, Janet F5059 752/859 122/143 0:58:59
5K 878/1010 1:03:29 5571 BENEDIKTSSON, Adrienne F4049 753/859 208/233 1:00:52
5K 879/1010 1:03:30 5573 MILLOY, Kristin U9999 2/3 2/3 1:00:50
5K 880/1010 1:03:31 5572 HILL, Dorothy F5059 754/859 123/143 1:00:52
5K 881/1010 1:03:32 5429 COLLINS, Mackenzie F2029 755/859 101/122 0:58:27
5K 882/1010 1:03:33 5441 WORONUIK, Ashley F2029 756/859 102/122 0:58:29
5K 883/1010 1:03:37 5729 AGUILAR, Maria F4049 757/859 209/233 1:00:56
5K 884/1010 1:03:38 5589 RICE, Marlena F2029 758/859 103/122 0:56:57
5K 885/1010 1:03:40 5427 BUTTS, Ryan M2029 120/143 24/28 0:58:34
5K 886/1010 1:03:41 5433 MACKENZIE, Colin M2029 121/143 25/28 0:58:35
5K 887/1010 1:03:46 5246 OLFERT, Jennifer F3039 759/859 189/206 0:59:46
5K 888/1010 1:03:47 5240 HEATON, Jennifer F4049 760/859 210/233 0:59:46
5K 889/1010 1:03:50 5909 GENTLES, Patricia F6069 761/859 25/35 0:58:32
5K 890/1010 1:03:52 5238 FORD, Macarina F4049 762/859 211/233 0:59:44
5K 891/1010 1:03:59 5561 WHITE, Donna F4049 763/859 212/233 0:57:26
5K 892/1010 1:04:01 5559 MCCLURE, Patricia F5059 764/859 124/143 0:57:33
5K 893/1010 1:04:02 5553 CLARKE, Jeremy M4049 122/143 36/38 0:57:29
5K 894/1010 1:04:03 8510 BURTON, Edna F6069 765/859 26/35 0:57:35
5K 895/1010 1:04:05 8611 CHAN, Sharon F2029 766/859 104/122 1:03:49
5K 896/1010 1:04:07 5213 CHAN, Guillermo M3039 123/143 23/30 1:03:49
5K 897/1010 1:04:24 5183 NICDAO, Harry M2029 124/143 26/28 0:58:16
5K 898/1010 1:04:28 5184 SMIT, Grant M2029 125/143 27/28 0:58:17
5K 899/1010 1:04:28 5180 JONES, Joanne F2029 767/859 105/122 0:58:19
5K 900/1010 1:04:28 8565 CORINE, Victoria F2029 768/859 106/122 0:58:18
5K 901/1010 1:04:29 3462 HARRISON, Kyla F2029 769/859 107/122 1:02:16
5K 902/1010 1:04:29 5179 JONES, Ashley F2029 770/859 108/122 0:58:20
5K 903/1010 1:04:30 5182 JONES, Michele F2029 771/859 109/122 0:58:23
5K 904/1010 1:04:30 5181 JONES, John M6069 126/143 3/4 0:58:23
5K 905/1010 1:04:33 3461 FERGUSON, Heather F5059 772/859 125/143 1:02:19
5K 906/1010 1:04:33 3457 IHSAN, Novin F4049 773/859 213/233 1:02:14
5K 907/1010 1:04:38 6031 SILVESTER, Lois F6069 774/859 27/35 1:00:06
5K 908/1010 1:04:39 6042 SMITH, Marilyn F6069 775/859 28/35 1:00:00
5K 909/1010 1:04:41 8563 WHITNEY, Lynn F5059 776/859 126/143 0:59:02
5K 910/1010 1:04:42 8547 HELLEVANG, Shelley F5059 777/859 127/143 0:59:09
5K 911/1010 1:05:27 8538 BERTSCH, Lara F4049 778/859 214/233 1:00:59
5K 912/1010 1:05:32 16373 SINCLAIR, Karen F5059 779/859 128/143 0:59:36
5K 913/1010 1:05:34 5942 LASHMORE, Shannon F4049 780/859 215/233 0:59:40
5K 914/1010 1:05:35 5319 ALY, Amira F3039 781/859 190/206 1:02:18
5K 915/1010 1:05:51 8527 BARACETTI, Leanne F2029 782/859 110/122 1:03:47
5K 916/1010 1:05:53 6077 WONG, Laina F3039 783/859 191/206 1:00:39
5K 917/1010 1:05:53 5122 LAM-SZALAY, Hester F3039 784/859 192/206 1:00:39
5K 918/1010 1:06:18 5813 YAKUBOWSKI, Jody F4049 785/859 216/233 1:01:51
5K 919/1010 1:06:20 5811 LOGAN, Josie F2029 786/859 111/122 1:01:55
5K 920/1010 1:06:30 5141 BROWN, Leroy M3039 127/143 24/30 1:01:51
5K 921/1010 1:06:30 5144 JURISIC, Dragana F2029 787/859 112/122 1:01:52
5K 922/1010 1:06:32 5142 HOPPER, Bradley M2029 128/143 28/28 1:01:48
5K 923/1010 1:06:32 5143 HOPPER, Jeanette F5059 788/859 129/143 1:01:56
5K 924/1010 1:06:51 5357 MERPAW, Tiana F2029 789/859 113/122 1:00:30
5K 925/1010 1:06:51 5360 WOLTER, William M-U20 129/143 16/17 1:00:26
5K 926/1010 1:06:53 5358 SUBOL, Shae-Lynn Anne F-U20 790/859 105/108 1:00:28
5K 927/1010 1:06:53 13173 FELIZARDO, Carl U9999 3/3 3/3 1:00:25
5K 928/1010 1:07:06 5359 VILLAFRANCA, Gilly F5059 791/859 130/143 1:03:02
5K 929/1010 1:07:41 5562 BELFORD, Carole F70+ 792/859 2/6 1:01:39
5K 930/1010 1:07:43 5565 GREGOIRE, Linda F5059 793/859 131/143 1:01:43
5K 931/1010 1:07:44 5564 DERUIGH, Madonna F5059 794/859 132/143 1:01:43
5K 932/1010 1:07:47 5831 TROFIMOVA, Natalya F5059 795/859 133/143 1:03:14
5K 933/1010 1:07:50 5596 VAN DOORN, Lynn F4049 796/859 217/233 1:03:21
5K 934/1010 1:07:59 16057 WESLEY, Shannon F4049 797/859 218/233 1:04:30
5K 935/1010 1:08:00 5586 GOULET-GAGNE, Olivier M3039 130/143 25/30 1:01:13
5K 936/1010 1:08:05 5584 FAMULAK, Melanie F4049 798/859 219/233 1:01:19
5K 937/1010 1:08:05 5587 HENNIGER, Hailey F2029 799/859 114/122 1:01:16
5K 938/1010 1:08:11 5585 GOULET-GAGNE, Lisa F3039 800/859 193/206 1:01:31
5K 939/1010 1:08:14 5708 GAGNON, Maureen F70+ 801/859 3/6 1:04:09
5K 940/1010 1:08:14 8530 NG, Kari F4049 802/859 220/233 1:19:18
5K 941/1010 1:08:44 8576 LAPRIX, Yolanda F4049 803/859 221/233 1:02:44
5K 942/1010 1:08:45 5676 LE, Sarah F3039 804/859 194/206 1:05:07
5K 943/1010 1:08:45 5673 CLYDE, Lana F3039 805/859 195/206 1:05:06
5K 944/1010 1:08:48 5545 LANGLEY, Carianne F2029 806/859 115/122 1:03:19
5K 945/1010 1:08:48 5546 LANGLEY, Leslie F5059 807/859 134/143 1:03:15
5K 946/1010 1:08:48 5534 MENDOZA, Suzanne F4049 808/859 222/233 1:03:35
5K 947/1010 1:08:49 5531 DURUPT, Elnora F6069 809/859 29/35 1:03:28
5K 948/1010 1:08:49 5672 BEAUCHAMP, Megan F3039 810/859 196/206 1:04:58
5K 949/1010 1:08:51 5533 DURUPT, Roger M70+ 131/143 3/4 1:03:33
5K 950/1010 1:09:05 5389 CROTEAU, Katrina F2029 811/859 116/122 1:05:49
5K 951/1010 1:09:14 8511 BALOGH-MAR, Cathy F6069 812/859 30/35 1:03:11
5K 952/1010 1:09:18 8514 MAR, Rick M6069 132/143 4/4 1:03:15
5K 953/1010 1:09:41 5355 KAUR, Harmandeep F2029 813/859 117/122 1:05:38
5K 954/1010 1:09:41 5356 MATHEW, Suma F5059 814/859 135/143 1:05:39
5K 955/1010 1:10:07 5560 PATEL, Bina F4049 815/859 223/233 1:03:37
5K 956/1010 1:10:08 5554 DANFORTH, Melanie F3039 816/859 197/206 1:03:37
5K 957/1010 1:10:09 8604 ZARREH, Neda F4049 817/859 224/233 1:03:42
5K 958/1010 1:10:18 8513 DASH, Steve M3039 133/143 26/30 1:04:11
5K 959/1010 1:10:22 8512 DASH, Kim F3039 818/859 198/206 1:04:19
5K 960/1010 1:10:47 3469 LATOURELLE, Beverly F3039 819/859 199/206 1:07:44
5K 961/1010 1:11:02 8525 PEARN, Robin F2029 820/859 118/122 1:07:10
5K 962/1010 1:11:05 5674 CURLEY, Melissa F3039 821/859 200/206 1:07:23
5K 963/1010 1:11:06 5675 KIRBY, Nyre F3039 822/859 201/206 1:07:21
5K 964/1010 1:11:08 5164 CHAMBERLAND, Stephanie F4049 823/859 225/233 1:06:17
5K 965/1010 1:11:09 5178 SALEMOHAMED, Hanif M4049 134/143 37/38 1:06:00
5K 966/1010 1:11:16 5472 LAM, Rachel F2029 824/859 119/122 1:05:25
5K 967/1010 1:11:17 3465 LAWRENCE, Joan F4049 825/859 226/233 1:06:24
5K 968/1010 1:11:18 5111 LACROIX, Leah F5059 826/859 136/143 1:06:27
5K 969/1010 1:11:21 5475 SALAZAR, Ron Duane M3039 135/143 27/30 1:05:31
5K 970/1010 1:11:21 5470 BENDER, Mary F6069 827/859 31/35 1:05:29
5K 971/1010 1:11:32 5108 SMITH-NORLIN, Vicky F5059 828/859 137/143 1:07:02
5K 972/1010 1:12:08 5216 GERDES, Sylvia F6069 829/859 32/35 1:05:22
5K 973/1010 1:12:12 5226 SIMMS, Jaunita F5059 830/859 138/143 1:05:31
5K 974/1010 1:12:17 3467 GREATHEAD, Andrew M3039 136/143 28/30 1:06:24
5K 975/1010 1:12:17 3468 JODOIN, Amanda F3039 831/859 202/206 1:06:23
5K 976/1010 1:12:50 3499 GUEVARRA, Charleigh F-U20 832/859 106/108 1:08:06
5K 977/1010 1:12:52 5333 GUEVARRA, Rowena F4049 833/859 227/233 1:08:07
5K 978/1010 1:12:53 5590 ROBITAILLE, Anna F2029 834/859 120/122 1:06:09
5K 979/1010 1:13:27 5219 MCCLEARY, Patricia F5059 835/859 139/143 1:06:34
5K 980/1010 1:13:35 5215 DENNIS, Cece F6069 836/859 33/35 1:06:45
5K 981/1010 1:13:38 5218 MCCLEARY, Doris F70+ 837/859 4/6 1:06:47
5K 982/1010 1:14:25 5543 CLEMENTS, Sean M3039 137/143 29/30 1:08:29
5K 983/1010 1:14:26 5542 BAXTER, Melanie F2029 838/859 121/122 1:08:30
5K 984/1010 1:14:56 5314 PENDLEBURY, Greg M4049 138/143 38/38 1:13:26
5K 985/1010 1:14:57 5307 JENKINS, Laura F6069 839/859 34/35 1:13:27
5K 986/1010 1:15:37 8517 RABEY, Owen M3039 139/143 30/30 1:09:10
5K 987/1010 1:15:38 8515 CULHAM, Bronwyn F3039 840/859 203/206 1:09:15
5K 988/1010 1:15:39 5577 CULHAM, Courtney F4049 841/859 228/233 1:09:17
5K 989/1010 1:15:44 5657 CUNDY, Rod F70+ 842/859 5/6 1:08:50
5K 990/1010 1:15:47 5666 PHILLIPS, Johanna F5059 843/859 140/143 1:08:53
5K 991/1010 1:15:52 16099 LAUGHLIN, Antoinette F4049 844/859 229/233 1:10:24
5K 992/1010 1:15:58 8516 CULHAM, Gerald M70+ 140/143 4/4 1:09:33
5K 993/1010 1:15:59 5530 DER, Anna F6069 845/859 35/35 1:10:48
5K 994/1010 1:16:12 5125 STARR, Tara F3039 846/859 204/206 1:10:35
5K 995/1010 1:16:14 5124 STARR, Melanie F5059 847/859 141/143 1:10:45
5K 996/1010 1:17:23 5476 WONG, Sharon F4049 848/859 230/233 1:11:38
5K 997/1010 1:19:40 5167 BERRY, Lisette F70+ 849/859 6/6 1:12:08
5K 998/1010 1:19:44 5169 THORSEN, Beth F5059 850/859 142/143 1:12:40
5K 999/1010 1:19:48 5170 THORSEN, Ron M5059 141/143 20/21 1:12:41
5K 1000/1010 1:24:03 5225 SEABA, Heather F3039 851/859 205/206 1:35:07
5K 1001/1010 1:28:00 5228 STROBACH, Malakai M-U20 142/143 17/17 1:21:25
5K 1002/1010 1:30:37 5392 DJUKIC, Irena F4049 852/859 231/233 1:27:08
5K 1003/1010 1:30:40 3498 LY, Eva F3039 853/859 206/206 1:27:12
5K 1004/1010 1:31:04 5825 CHEHADE, Amani F4049 854/859 232/233 1:42:07
5K 1005/1010 1:32:25 5217 IZZO, Rayelyn F4049 855/859 233/233 1:25:52
5K 1006/1010 1:32:45 5407 GUEVARRA, Charisse F-U20 856/859 107/108 1:27:55
5K 1007/1010 1:32:48 5408 GUEVARRA, Charmaine F-U20 857/859 108/108 1:28:06
5K 1008/1010 1:33:31 5491 DE ROCA, Marife F5059 858/859 143/143 1:28:46
5K 1009/1010 1:33:31 5492 DE ROCA, Raeven F2029 859/859 122/122 1:28:58
5K 1010/1010 1:33:37 5490 DE ROCA, Arzinal M5059 143/143 21/21 1:28:55